• Join FlightAware (Why Join?)
  • Login
  • US Flag 
04:42AM EDT


 

Airport Tracker/Info


-or-


 

Live Flight TrackerFlight Track Log ✈ AFL150 ✈ 15-Aug-2013 ✈ UUEE / SVO - MUHA / HAV

Flight Track Log - Related Links

Times and Time Zones

All times are in EDT time to prevent confusion due to time zone crossing. See the AFL150 flight status page for this flight to view local times or setup timezone preferences in your user account.

Time Position Orientation Groundspeed Altitude Reporting Facility
EDT Latitude Longitude Course Direction KTS MPH feet Rate Location/Type
06:24AM 55.9650 37.3680 256° West 176 203 1,500  Level FlightAware
06:24AM 55.9610 37.3400 256° West 173 199 2,400 1,980 Climbing FlightAware
06:25AM 55.9570 37.3110 256° West 193 222 2,800 1,020 Climbing FlightAware
06:25AM 55.9530 37.2870 253° West 210 242 3,000 1,020 Climbing FlightAware
06:25AM 55.9480 37.2520 256° West 231 266 3,400 960 Climbing FlightAware
06:25AM 55.9470 37.2410 261° West 241 277 3,400 1,440 Level FlightAware
06:26AM 55.9530 37.2080 288° West 256 295 4,000 2,400 Climbing FlightAware
06:26AM 55.9670 37.1700 303° West 256 295 5,100 2,520 Climbing FlightAware
06:26AM 55.9880 37.1300 313° West 258 297 6,100 2,340 Climbing FlightAware
06:27AM 56.0090 37.0890 313° West 258 297 7,200 2,040 Climbing FlightAware
06:27AM 56.0190 37.0710 315° West 258 297 7,300 1,560 Climbing FlightAware
06:28AM 56.0190 37.0080 270° West 265 305 8,300 2,160 Climbing FlightAware
06:28AM 56.0190 36.9620 270° West 272 313 9,100 2,580 Climbing FlightAware
06:28AM 56.0180 36.9150 268° West 276 318 10,000 1,920 Climbing FlightAware
06:29AM 56.0170 36.8340 269° West 292 336 10,900 1,260 Climbing FlightAware
06:29AM 56.0150 36.7420 268° West 331 381 11,500 1,440 Climbing FlightAware
06:30AM 56.0120 36.6480 267° West 345 397 12,600 2,040 Climbing FlightAware
06:31AM 56.0090 36.5420 267° West 353 406 13,900 2,280 Climbing FlightAware
06:31AM 56.0060 36.4400 267° West 356 410 15,300 2,520 Climbing FlightAware
06:32AM 56.0030 36.3240 267° West 351 404 17,100 2,880 Climbing FlightAware
06:32AM 56.0000 36.2240 267° West 338 389 18,900 2,280 Climbing FlightAware
06:33AM 55.9970 36.1420 266° West 350 403 19,600 1,560 Climbing FlightAware
06:33AM 55.9940 36.0420 267° West 355 409 20,600 1,800 Climbing FlightAware
06:34AM 55.9910 35.9390 267° West 358 412 21,700 1,680 Climbing FlightAware
06:35AM 55.9870 35.8320 266° West 363 418 22,600 1,440 Climbing FlightAware
06:35AM 55.9830 35.7170 266° West 372 428 23,500 1,920 Climbing FlightAware
06:36AM 55.9780 35.5660 267° West 359 413 25,400 2,340 Climbing FlightAware
06:37AM 55.9750 35.4740 267° West 347 399 26,600 1,260 Climbing FlightAware
06:37AM 55.9710 35.3710 266° West 362 417 26,900 480 Climbing FlightAware
06:38AM 55.9660 35.2580 266° West 378 435 27,200 480 Climbing FlightAware
06:38AM 55.9680 35.1340 272° West 405 466 27,500 360 Climbing FlightAware
06:39AM 55.9720 35.0200 274° West 417 480 27,700 420 Climbing FlightAware
06:40AM 55.9770 34.8950 274° West 428 493 28,000 780 Climbing FlightAware
06:40AM 55.9810 34.7850 274° West 431 496 28,600 1,080 Climbing FlightAware
06:41AM 55.9850 34.6590 273° West 430 495 29,300 1,320 Climbing FlightAware
06:41AM 55.9900 34.5330 274° West 424 488 30,200 1,380 Climbing FlightAware
06:42AM 55.9940 34.4030 273° West 419 482 31,000 1,200 Climbing FlightAware
06:42AM 55.9970 34.3000 273° West 419 482 31,600 1,020 Climbing FlightAware
06:43AM 56.0010 34.1700 273° West 418 481 32,200 1,080 Climbing FlightAware
06:44AM 56.0050 34.0460 273° West 415 478 32,900 1,020 Climbing FlightAware
06:44AM 56.0080 33.9390 273° West 412 474 33,400 660 Climbing FlightAware
06:45AM 56.0120 33.8050 273° West 419 482 33,700 420 Climbing FlightAware
06:45AM 56.0150 33.6750 272° West 421 484 34,000 240 Climbing FlightAware
06:46AM 56.0180 33.5650 273° West 421 484 34,000  Level FlightAware
06:47AM 56.0230 33.4400 274° West 425 489 34,000  Level FlightAware
06:47AM 56.0360 33.3170 281° West 437 503 34,000  Level FlightAware
06:48AM 56.0500 33.2040 283° West 437 503 34,000  Level FlightAware
06:48AM 56.0670 33.0610 282° West 435 501 34,000  Level FlightAware
06:49AM 56.0870 32.8960 282° West 435 501 34,000  Level FlightAware
06:50AM 56.1000 32.7910 283° West 435 501 34,000  Level FlightAware
06:50AM 56.1160 32.6560 282° West 435 501 34,000  Level FlightAware
06:51AM 56.1290 32.5470 282° West 435 501 34,000  Level FlightAware
06:52AM 56.1470 32.3880 282° West 434 499 34,000  Level FlightAware
06:52AM 56.1620 32.2670 283° West 437 503 34,000  Level FlightAware
06:53AM 56.1830 32.1430 287° West 442 509 34,000  Level FlightAware
06:53AM 56.2100 32.0360 294° West 450 518 34,000  Level FlightAware
06:54AM 56.2490 31.9180 301° West 459 528 34,000  Level FlightAware
06:54AM 56.2910 31.8070 304° West 461 531 34,000  Level FlightAware
06:55AM 56.3360 31.6850 304° West 461 531 34,000  Level FlightAware
06:56AM 56.3770 31.5720 303° West 462 532 34,000  Level FlightAware
06:56AM 56.4140 31.4650 302° West 461 531 34,000  Level FlightAware
06:57AM 56.4490 31.3650 302° West 461 531 34,000  Level FlightAware
06:58AM 56.4830 31.2650 302° West 461 531 34,000  Level FlightAware
06:58AM 56.5190 31.1620 302° West 461 531 34,000  Level FlightAware
06:59AM 56.5530 31.0620 302° West 461 531 34,000  Level FlightAware
06:59AM 56.5880 30.9610 302° West 461 531 34,000  Level FlightAware
07:00AM 56.6220 30.8610 302° West 461 531 34,000  Level FlightAware
07:01AM 56.6570 30.7600 302° West 461 531 34,000  Level FlightAware
07:01AM 56.6920 30.6590 302° West 461 531 34,000  Level FlightAware
07:02AM 56.7260 30.5580 302° West 461 531 34,000  Level FlightAware
07:02AM 56.7610 30.4570 302° West 461 531 34,000  Level FlightAware
07:03AM 56.7960 30.3540 302° West 461 531 34,000  Level FlightAware
07:04AM 56.8320 30.2500 302° West 461 531 34,000  Level FlightAware
07:04AM 56.8660 30.1480 301° West 461 531 34,000  Level FlightAware
07:05AM 56.9020 30.0440 302° West 461 531 34,000  Level FlightAware
07:05AM 56.9360 29.9430 302° West 461 531 34,000 1,680 Level FlightAware
07:06AM 57.1350 29.5800 315° West 470 541 36,000 1,560 Climbing FlightAware
07:07AM 57.1790 29.4590 304° West 466 536 36,000  Level FlightAware
07:07AM 57.2300 29.3150 303° West 464 534 36,000  Level FlightAware
07:08AM 57.2690 29.2040 303° West 464 534 36,000  Level FlightAware
07:09AM 57.3150 29.0730 303° West 464 534 36,000  Level FlightAware
07:09AM 57.3570 28.9520 303° West 462 532 36,000  Level FlightAware
07:10AM 57.3970 28.8380 303° West 462 532 36,000  Level FlightAware
07:10AM 57.4380 28.7190 303° West 461 531 36,000  Level FlightAware
07:11AM 57.4840 28.5860 303° West 462 532 36,000  Level FlightAware
07:11AM 57.5180 28.4860 302° West 463 533 36,000  Level FlightAware
07:12AM 57.5590 28.3670 303° West 464 534 36,000  Level FlightAware
07:13AM 57.5990 28.2490 302° West 465 535 36,000  Level FlightAware
07:13AM 57.6440 28.1150 302° West 465 535 36,000  Level FlightAware
07:14AM 57.6770 28.0160 302° West 465 535 36,000  Level FlightAware
07:14AM 57.7190 27.8920 302° West 465 535 36,000  Level FlightAware
07:15AM 57.7630 27.7600 302° West 464 534 36,000  Level FlightAware
07:16AM 57.7980 27.6550 302° West 464 534 36,000  Level FlightAware
07:16AM 57.8360 27.5340 301° West 464 534 36,000  Level FlightAware
07:17AM 57.8620 27.4060 291° West 463 533 36,000  Level FlightAware
07:17AM 57.8880 27.2760 291° West 464 534 36,000  Level FlightAware
07:18AM 57.9160 27.1390 291° West 465 535 36,000  Level FlightAware
07:18AM 57.9420 27.0110 291° West 465 535 36,000  Level FlightAware
07:19AM 57.9680 26.8760 290° West 464 534 36,000  Level FlightAware
07:20AM 57.9950 26.7430 291° West 463 533 36,000  Level FlightAware
07:20AM 58.0210 26.6120 291° West 462 532 36,000  Level FlightAware
07:21AM 58.0500 26.4600 290° West 462 532 36,000  Level FlightAware
07:21AM 58.0700 26.3600 291° West 461 531 36,000  Level FlightAware
07:22AM 58.0980 26.2140 290° West 461 531 36,000  Level FlightAware
07:23AM 58.1230 26.0850 290° West 460 529 36,000  Level FlightAware
07:23AM 58.1480 25.9500 289° West 459 528 36,000  Level FlightAware
07:24AM 58.1730 25.8210 290° West 459 528 36,000  Level FlightAware
07:24AM 58.1970 25.6930 290° West 459 528 36,000  Level FlightAware
07:25AM 58.2220 25.5550 289° West 460 529 36,000  Level FlightAware
07:26AM 58.2500 25.4030 289° West 459 528 36,000  Level FlightAware
07:26AM 58.2710 25.2900 290° West 460 529 36,000  Level FlightAware
07:27AM 58.2990 25.1380 289° West 461 531 36,000  Level FlightAware
07:27AM 58.3200 25.0230 289° West 462 532 36,000  Level FlightAware
07:28AM 58.3510 24.8500 289° West 463 533 36,000  Level FlightAware
07:29AM 58.3750 24.7130 289° West 465 535 36,000  Level FlightAware
07:29AM 58.3960 24.5960 289° West 465 535 36,000  Level FlightAware
07:30AM 58.4220 24.4490 289° West 465 535 36,000  Level FlightAware
07:30AM 58.4440 24.3030 286° West 466 536 36,000  Level FlightAware
07:31AM 58.4670 24.1470 286° West 466 536 36,000  Level FlightAware
07:32AM 58.4880 24.0090 286° West 467 537 36,000  Level FlightAware
07:32AM 58.5090 23.8690 286° West 467 537 36,000  Level FlightAware
07:33AM 58.5350 23.6900 286° West 466 536 36,000  Level FlightAware
07:34AM 58.5580 23.5340 286° West 466 536 36,000  Level FlightAware
07:34AM 58.5780 23.3940 285° West 465 535 36,000  Level FlightAware
07:35AM 58.5980 23.2550 285° West 463 533 36,000  Level FlightAware
07:35AM 58.6180 23.1190 286° West 462 532 36,000  Level FlightAware
07:36AM 58.6370 22.9820 285° West 460 529 36,000  Level FlightAware
07:36AM 58.6560 22.8470 285° West 460 529 36,000  Level FlightAware
07:37AM 58.6810 22.6650 285° West 460 529 36,000  Level FlightAware
07:38AM 58.6970 22.5510 285° West 461 531 36,000  Level FlightAware
07:38AM 58.7160 22.4060 284° West 462 532 36,000  Level FlightAware
07:39AM 58.7350 22.2670 285° West 462 532 36,000  Level FlightAware
07:40AM 58.7560 22.1090 284° West 463 533 36,000  Level FlightAware
07:40AM 58.7710 21.9940 284° West 463 533 36,000  Level FlightAware
07:41AM 58.7920 21.8360 284° West 464 534 36,000  Level FlightAware
07:41AM 58.8110 21.6910 284° West 463 533 36,000  Level FlightAware
07:42AM 58.8300 21.5540 285° West 462 532 36,000  Level FlightAware
07:42AM 58.8530 21.4280 289° West 461 531 36,000  Level FlightAware
07:43AM 58.8780 21.2820 288° West 460 529 36,000  Level FlightAware
07:44AM 58.9020 21.1420 288° West 459 528 36,000  Level FlightAware
07:44AM 58.9220 21.0260 289° West 459 528 36,000  Level FlightAware
07:45AM 58.9470 20.8750 288° West 457 526 36,000  Level FlightAware
07:45AM 58.9690 20.7370 287° West 457 526 36,000  Level FlightAware
07:46AM 58.9920 20.5970 288° West 457 526 36,000  Level FlightAware
07:47AM 59.0120 20.4720 287° West 457 526 36,000  Level FlightAware
07:47AM 59.0350 20.3310 288° West 457 526 36,000  Level FlightAware
07:48AM 59.0570 20.1930 287° West 456 525 36,000  Level FlightAware
07:48AM 59.0770 20.0650 287° West 456 525 36,000  Level FlightAware
07:49AM 59.1000 19.9220 287° West 454 522 36,000  Level FlightAware
07:49AM 59.1220 19.7790 287° West 453 521 36,000  Level FlightAware
07:50AM 59.1420 19.6520 287° West 453 521 36,000  Level FlightAware
07:51AM 59.1620 19.5200 287° West 451 519 36,000  Level FlightAware
07:51AM 59.1840 19.3760 287° West 450 518 36,000  Level FlightAware
07:52AM 59.2040 19.2410 286° West 449 517 36,000  Level FlightAware
07:52AM 59.2240 19.1070 286° West 450 518 36,000  Level FlightAware
07:53AM 59.2440 18.9720 286° West 450 518 36,000  Level FlightAware
07:54AM 59.2640 18.8350 286° West 451 519 36,000  Level FlightAware
07:54AM 59.2810 18.7190 286° West 450 518 36,000  Level FlightAware
07:55AM 59.3040 18.5650 286° West 449 517 36,000  Level FlightAware
07:55AM 59.3230 18.4290 285° West 450 518 36,000  Level FlightAware
07:56AM 59.3450 18.2770 286° West 449 517 36,000  Level FlightAware
07:56AM 59.3610 18.1600 285° West 450 518 36,000  Level FlightAware
07:57AM 59.3810 18.0220 286° West 448 516 36,000  Level FlightAware
07:58AM 59.4010 17.8780 285° West 449 517 36,000  Level FlightAware
07:58AM 59.4200 17.7330 285° West 449 517 36,000  Level FlightAware
07:59AM 59.4390 17.5970 285° West 450 518 36,000  Level FlightAware
07:59AM 59.4560 17.4690 285° West 449 517 36,000  Level FlightAware
08:00AM 59.4750 17.3320 285° West 449 517 36,000  Level FlightAware
08:01AM 59.4940 17.1890 285° West 448 516 36,000  Level FlightAware
08:01AM 59.5120 17.0530 285° West 446 513 36,000  Level FlightAware
08:02AM 59.5310 16.9070 284° West 443 510 36,000  Level FlightAware
08:02AM 59.5470 16.7800 284° West 442 509 36,000  Level FlightAware
08:03AM 59.5650 16.6370 284° West 441 507 36,000  Level FlightAware
08:03AM 59.5820 16.5020 284° West 440 506 36,000  Level FlightAware
08:04AM 59.5980 16.3780 284° West 440 506 36,000  Level FlightAware
08:05AM 59.6140 16.2510 284° West 440 506 36,000  Level FlightAware
08:05AM 59.6330 16.0900 283° West 441 507 36,000  Level FlightAware
08:06AM 59.6500 15.9530 284° West 442 509 36,000  Level FlightAware
08:06AM 59.6650 15.8350 284° West 443 510 36,000  Level FlightAware
08:07AM 59.6780 15.7220 283° West 443 510 36,000  Level FlightAware
08:07AM 59.6930 15.5940 283° West 443 510 36,000  Level FlightAware
08:08AM 59.7120 15.4320 283° West 442 509 36,000  Level FlightAware
08:09AM 59.7280 15.2960 283° West 443 510 36,000  Level FlightAware
08:09AM 59.7450 15.1520 283° West 443 510 36,000  Level FlightAware
08:10AM 59.7590 15.0270 283° West 443 510 36,000  Level FlightAware
08:10AM 59.7750 14.8860 283° West 444 511 36,000  Level FlightAware
08:11AM 59.7900 14.7490 282° West 445 512 36,000  Level FlightAware
08:11AM 59.8040 14.6290 283° West 445 512 36,000  Level FlightAware
08:12AM 59.8210 14.4590 281° West 444 511 36,000  Level FlightAware
08:13AM 59.8340 14.3240 281° West 444 511 36,000  Level FlightAware
08:13AM 59.8490 14.1790 282° West 444 511 36,000  Level FlightAware
08:14AM 59.8630 14.0380 281° West 445 512 36,000  Level FlightAware
08:14AM 59.8760 13.9040 281° West 445 512 36,000  Level FlightAware
08:15AM 59.8890 13.7640 281° West 444 511 36,000  Level FlightAware
08:16AM 59.9020 13.6250 281° West 443 510 36,000  Level FlightAware
08:16AM 59.9140 13.5020 281° West 442 509 36,000  Level FlightAware
08:17AM 59.9300 13.3290 281° West 441 507 36,000  Level FlightAware
08:17AM 59.9410 13.2080 280° West 442 509 36,000  Level FlightAware
08:18AM 59.9610 13.0670 286° West 441 507 36,000  Level FlightAware
08:19AM 59.9820 12.9290 287° West 443 510 36,000  Level FlightAware
08:19AM 60.0020 12.7920 286° West 443 510 36,000  Level FlightAware
08:20AM 60.0230 12.6510 287° West 443 510 36,000  Level FlightAware
08:20AM 60.0430 12.5160 287° West 441 507 36,000  Level FlightAware
08:21AM 60.0670 12.3470 286° West 439 505 36,000  Level FlightAware
08:22AM 60.0850 12.2240 286° West 438 504 36,000  Level FlightAware
08:22AM 60.1050 12.0820 286° West 438 504 36,000  Level FlightAware
08:23AM 60.1260 11.9370 286° West 438 504 36,000  Level FlightAware
08:23AM 60.1440 11.8060 285° West 439 505 36,000  Level FlightAware
08:24AM 60.1620 11.6750 285° West 437 503 36,000  Level FlightAware
08:24AM 60.1820 11.5280 285° West 437 503 36,000  Level FlightAware
08:25AM 60.2000 11.3960 285° West 436 502 36,000  Level FlightAware
08:26AM 60.2190 11.2540 285° West 435 501 36,000  Level FlightAware
08:26AM 60.2370 11.1220 285° West 436 502 36,000  Level FlightAware
08:27AM 60.2540 10.9940 285° West 435 501 36,000  Level FlightAware
08:27AM 60.2730 10.8490 285° West 436 502 36,000  Level FlightAware
08:28AM 60.2870 10.7380 284° West 437 503 36,000  Level FlightAware
08:29AM 60.3080 10.5810 285° West 439 505 36,000  Level FlightAware
08:29AM 60.3270 10.4320 285° West 439 505 36,000  Level FlightAware
08:30AM 60.3440 10.2970 284° West 440 506 36,000  Level FlightAware
08:30AM 60.3650 10.1300 284° West 440 506 36,000  Level FlightAware
08:31AM 60.3840 9.9790 284° West 439 505 36,000  Level FlightAware
08:32AM 60.4020 9.8270 284° West 438 504 36,000  Level FlightAware
08:32AM 60.4190 9.6860 284° West 436 502 36,000  Level FlightAware
08:33AM 60.4360 9.5460 284° West 434 499 36,000  Level FlightAware
08:33AM 60.4520 9.4160 284° West 434 499 36,000  Level FlightAware
08:34AM 60.4680 9.2770 283° West 433 498 36,000  Level FlightAware
08:35AM 60.4860 9.1260 284° West 434 499 36,000  Level FlightAware
08:35AM 60.5020 8.9840 283° West 433 498 36,000  Level FlightAware
08:36AM 60.5170 8.8570 284° West 433 498 36,000  Level FlightAware
08:36AM 60.5330 8.7160 283° West 433 498 36,000  Level FlightAware
08:37AM 60.5470 8.5870 282° West 434 499 36,000  Level FlightAware
08:38AM 60.5640 8.4390 283° West 434 499 36,000  Level FlightAware
08:38AM 60.5770 8.3160 282° West 434 499 36,000  Level FlightAware
08:39AM 60.5950 8.1590 283° West 433 498 36,000  Level FlightAware
08:39AM 60.6100 8.0140 282° West 433 498 36,000  Level FlightAware
08:40AM 60.6230 7.8900 282° West 434 499 36,000  Level FlightAware
08:40AM 60.6390 7.7450 283° West 434 499 36,000  Level FlightAware
08:41AM 60.6540 7.6020 282° West 434 499 36,000  Level FlightAware
08:42AM 60.6680 7.4570 281° West 433 498 36,000  Level FlightAware
08:42AM 60.6810 7.3310 282° West 433 498 36,000  Level FlightAware
08:43AM 60.6970 7.1800 282° West 433 498 36,000  Level FlightAware
08:43AM 60.7120 7.0290 282° West 433 498 36,000  Level FlightAware
08:44AM 60.7290 6.8530 281° West 433 498 36,000  Level FlightAware
08:45AM 60.7420 6.7250 282° West 433 498 36,000  Level FlightAware
08:45AM 60.7570 6.5650 281° West 433 498 36,000  Level FlightAware
08:46AM 60.7700 6.4230 281° West 432 497 36,000  Level FlightAware
08:46AM 60.7820 6.3040 282° West 433 498 36,000  Level FlightAware
08:47AM 60.7940 6.1630 280° West 431 496 36,000  Level FlightAware
08:48AM 60.8090 6.0030 281° West 431 496 36,000  Level FlightAware
08:48AM 60.8190 5.8910 280° West 431 496 36,000  Level FlightAware
08:49AM 60.8320 5.7430 280° West 432 497 36,000  Level FlightAware
08:49AM 60.8470 5.5860 281° West 433 498 36,000  Level FlightAware
08:50AM 60.8570 5.4640 280° West 433 498 36,000  Level FlightAware
08:51AM 60.8680 5.3310 280° West 434 499 36,000  Level FlightAware
08:51AM 60.8830 5.1610 280° West 434 499 36,000  Level FlightAware
08:52AM 60.8930 5.0420 280° West 434 499 36,000  Level FlightAware
08:52AM 60.9040 4.9090 280° West 435 501 36,000  Level FlightAware
08:53AM 60.9190 4.7180 279° West 435 501 36,000  Level FlightAware
08:54AM 60.9310 4.5670 279° West 436 502 36,000  Level FlightAware
08:54AM 60.9430 4.4230 280° West 436 502 36,000  Level FlightAware
08:55AM 60.9540 4.2810 279° West 436 502 36,000  Level FlightAware
08:55AM 60.9660 4.1200 279° West 436 502 36,000  Level FlightAware
08:56AM 60.9770 3.9750 279° West 437 503 36,000  Level FlightAware
08:57AM 60.9910 3.7910 279° West 438 504 36,000 240 Level FlightAware
08:57AM 61.0000 3.6690 279° West 436 502 36,300 600 Climbing FlightAware
08:58AM 61.0000 13.0000 86° East 437 503 36,800 360 Climbing FlightAware
08:59AM 61.0060 12.9080 278° West 441 507 37,000 120 Climbing FlightAware
09:00AM 61.0390 3.1120 275° West 434 499 37,000  Level FlightAware
09:00AM 61.0490 2.9730 279° West 432 497 37,000  Level FlightAware
09:01AM 61.0580 2.8280 277° West 430 495 37,000  Level FlightAware
09:01AM 61.0670 2.6850 277° West 429 494 37,000  Level FlightAware
09:02AM 61.0770 2.5430 278° West 429 494 37,000  Level FlightAware
09:03AM 61.0860 2.4000 277° West 429 494 37,000  Level FlightAware
09:03AM 61.0940 2.2660 277° West 431 496 37,000  Level FlightAware
09:04AM 61.1030 2.1140 277° West 433 498 37,000  Level FlightAware
09:04AM 61.1120 1.9710 277° West 434 499 37,000  Level FlightAware
09:05AM 61.1200 1.8290 277° West 435 501 37,000  Level FlightAware
09:06AM 61.1310 1.6420 277° West 436 502 37,000  Level FlightAware
09:06AM 61.1380 1.5170 277° West 437 503 37,000  Level FlightAware
09:07AM 61.1460 1.3750 277° West 437 503 37,000  Level FlightAware
09:07AM 61.1550 1.2070 276° West 439 505 37,000  Level FlightAware
09:08AM 61.1630 1.0590 276° West 440 506 37,000  Level FlightAware
09:08AM 61.1700 0.9350 277° West 440 506 37,000  Level FlightAware
09:09AM 61.1760 0.8000 275° West 439 505 37,000  Level FlightAware
09:10AM 61.1840 0.6430 276° West 439 505 37,000  Level FlightAware
09:10AM 61.1920 0.4910 276° West 438 504 37,000  Level FlightAware
09:11AM 61.2000 0.3190 276° West 438 504 37,000  Level FlightAware
09:11AM 61.2060 0.1990 276° West 438 504 37,000  Level FlightAware
09:12AM 61.2100 0.0560 273° West 438 504 37,000  Level FlightAware
09:13AM 61.2150 -0.0730 275° West 438 504 37,000  Level FlightAware
09:13AM 61.2190 -0.2080 274° West 438 504 37,000  Level FlightAware
09:14AM 61.3140 -0.4410 310° West 451 519 37,000  Level FlightAware
09:15AM 61.3460 -0.5850 295° West 452 520 37,000  Level FlightAware
09:15AM 61.3730 -0.7060 295° West 452 520 37,000  Level FlightAware
09:16AM 61.4000 -0.8270 295° West 452 520 37,000  Level FlightAware
09:17AM 61.4720 -1.1650 294° West 429 494 37,000  Level FlightAware
09:18AM 61.5030 -1.3090 294° West 455 524 37,000  Level FlightAware
09:18AM 61.5300 -1.4360 294° West 456 525 37,000  Level FlightAware
09:19AM 61.5640 -1.5960 294° West 457 526 37,000  Level FlightAware
09:19AM 61.5900 -1.7300 292° West 457 526 37,000  Level FlightAware
09:20AM 61.6150 -1.8590 292° West 457 526 37,000  Level FlightAware
09:20AM 61.6310 -1.9430 292° West 457 526 37,000  Level FlightAware
09:21AM 61.6560 -2.0730 292° West 457 526 37,000  Level FlightAware
09:22AM 61.6800 -2.2000 292° West 457 526 37,000  Level FlightAware
09:22AM 61.7040 -2.3260 292° West 457 526 37,000  Level FlightAware
09:23AM 61.7290 -2.4560 292° West 457 526 37,000  Level FlightAware
09:23AM 61.7530 -2.5830 292° West 457 526 37,000  Level FlightAware
09:24AM 61.7770 -2.7100 292° West 457 526 37,000  Level FlightAware
09:25AM 61.8020 -2.8400 292° West 457 526 37,000  Level FlightAware
09:25AM 61.8790 -3.1470 298° West 37,000  Level FlightAware
09:26AM 61.9040 -3.2750 293° West 458 527 37,000  Level FlightAware
09:26AM 61.9300 -3.4130 292° West 458 527 37,000  Level FlightAware
09:27AM 61.9540 -3.5410 292° West 458 527 37,000  Level FlightAware
09:27AM 61.9850 -3.6960 293° West 459 528 37,000  Level FlightAware
09:28AM 62.0200 -3.8820 292° West 461 531 37,000  Level FlightAware
09:29AM 62.0490 -4.0370 292° West 461 531 37,000  Level FlightAware
09:29AM 62.0780 -4.1940 292° West 462 532 37,000  Level FlightAware
09:30AM 62.1050 -4.3450 291° West 462 532 37,000  Level FlightAware
09:31AM 62.1290 -4.4790 291° West 462 532 37,000  Level FlightAware
09:31AM 62.1530 -4.6100 291° West 462 532 37,000  Level FlightAware
09:32AM 62.1770 -4.7440 291° West 462 532 37,000  Level FlightAware
09:33AM 62.2010 -4.8780 291° West 462 532 37,000  Level FlightAware
09:33AM 62.2250 -5.0130 291° West 462 532 37,000  Level FlightAware
09:34AM 62.2480 -5.1440 291° West 462 532 37,000  Level FlightAware
09:34AM 62.2720 -5.2750 292° West 462 532 37,000  Level FlightAware
09:35AM 62.2950 -5.4070 291° West 462 532 37,000  Level FlightAware
09:35AM 62.3580 -5.7700 291° West 457 526 37,000  Level FlightAware
09:36AM 62.3810 -5.9080 290° West 457 526 37,000  Level FlightAware
09:37AM 62.4040 -6.0390 291° West 457 526 37,000  Level FlightAware
09:37AM 62.4260 -6.1740 289° West 457 526 37,000  Level FlightAware
09:38AM 62.4600 -6.3800 290° West 463 533 37,000  Level FlightAware
09:38AM 62.4810 -6.5140 289° West 463 533 37,000  Level FlightAware
09:39AM 62.5020 -6.6480 289° West 463 533 37,000  Level FlightAware
09:40AM 62.5240 -6.7830 290° West 463 533 37,000  Level FlightAware
09:41AM 62.5880 -7.1730 290° West 462 532 37,000  Level FlightAware
09:42AM 62.6190 -7.3720 289° West 462 532 37,000  Level FlightAware
09:42AM 62.6450 -7.5350 289° West 464 534 37,000  Level FlightAware
09:43AM 62.6750 -7.7340 288° West 464 534 37,000  Level FlightAware
09:44AM 62.6950 -7.8700 288° West 464 534 37,000  Level FlightAware
09:44AM 62.7160 -8.0100 288° West 464 534 37,000  Level FlightAware
09:45AM 62.7350 -8.1390 288° West 464 534 37,000  Level FlightAware
09:45AM 62.7560 -8.2750 289° West 464 534 37,000  Level FlightAware
09:46AM 62.7770 -8.4190 288° West 464 534 37,000  Level FlightAware
09:47AM 62.7980 -8.5600 288° West 464 534 37,000  Level FlightAware
09:47AM 62.8470 -8.8930 288° West 465 535 37,000  Level FlightAware
09:48AM 62.8680 -9.0390 288° West 465 535 37,000  Level FlightAware
09:48AM 62.8920 -9.2120 287° West 464 534 37,000  Level FlightAware
09:49AM 62.9120 -9.3550 287° West 464 534 37,000  Level FlightAware
09:50AM 62.9440 -9.5860 287° West 464 534 37,000  Level FlightAware
09:50AM 62.9720 -9.7440 291° West 467 537 37,000  Level FlightAware
09:51AM 63.0020 -9.9050 292° West 467 537 37,000  Level FlightAware
09:52AM 63.0270 -10.0480 291° West 466 536 37,000  Level FlightAware
09:52AM 63.0540 -10.1980 292° West 466 536 37,000  Level FlightAware
09:53AM 63.0840 -10.3680 291° West 465 535 37,000  Level FlightAware
09:53AM 63.1090 -10.5100 291° West 466 536 37,000  Level FlightAware
09:54AM 63.1340 -10.6500 292° West 465 535 37,000  Level FlightAware
09:55AM 63.1640 -10.8260 291° West 466 536 37,000  Level FlightAware
09:55AM 63.1890 -10.9720 291° West 467 537 37,000  Level FlightAware
09:56AM 63.2160 -11.1280 291° West 467 537 37,000  Level FlightAware
09:56AM 63.2450 -11.3000 291° West 467 537 37,000  Level FlightAware
09:57AM 63.2690 -11.4450 290° West 468 539 37,000  Level FlightAware
09:57AM 63.2960 -11.6070 290° West 467 537 37,000  Level FlightAware
09:58AM 63.3230 -11.7690 290° West 466 536 37,000  Level FlightAware
09:59AM 63.3490 -11.9300 290° West 465 535 37,000  Level FlightAware
09:59AM 63.3720 -12.0710 290° West 466 536 37,000  Level FlightAware
10:00AM 63.3970 -12.2280 290° West 465 535 37,000  Level FlightAware
10:00AM 63.4240 -12.3970 290° West 467 537 37,000  Level FlightAware
10:01AM 63.4480 -12.5520 289° West 468 539 37,000  Level FlightAware
10:01AM 63.4710 -12.6990 289° West 469 540 37,000  Level FlightAware
10:02AM 63.4950 -12.8510 290° West 469 540 37,000  Level FlightAware
10:03AM 63.5230 -13.0360 289° West 470 541 37,000  Level FlightAware
10:03AM 63.5460 -13.1860 289° West 469 540 37,000  Level FlightAware
10:04AM 63.5710 -13.3500 289° West 468 539 37,000  Level FlightAware
10:04AM 63.5950 -13.5120 288° West 468 539 37,000  Level FlightAware
10:05AM 63.6190 -13.6740 289° West 468 539 37,000  Level FlightAware
10:06AM 63.6430 -13.8350 289° West 469 540 37,000  Level FlightAware
10:06AM 63.6660 -13.9940 288° West 469 540 37,000  Level FlightAware
10:07AM 63.6900 -14.1630 288° West 469 540 37,000  Level FlightAware
10:07AM 63.7120 -14.3170 288° West 470 541 37,000  Level FlightAware
10:08AM 63.7360 -14.4870 288° West 471 542 37,000  Level FlightAware
10:08AM 63.7570 -14.6360 288° West 470 541 37,000  Level FlightAware
10:09AM 63.7810 -14.8130 287° West 470 541 37,000  Level FlightAware
10:10AM 63.8030 -14.9750 287° West 470 541 37,000  Level FlightAware
10:10AM 63.8250 -15.1350 287° West 470 541 37,000  Level FlightAware
10:11AM 63.8490 -15.3090 287° West 471 542 37,000  Level FlightAware
10:11AM 63.8640 -15.4240 287° West 472 543 37,000  Level FlightAware
10:12AM 63.8920 -15.6330 287° West 472 543 37,000  Level FlightAware
10:13AM 63.9140 -15.8060 286° West 473 544 37,000  Level FlightAware
10:13AM 63.9340 -15.9570 287° West 474 545 37,000  Level FlightAware
10:14AM 63.9540 -16.1160 286° West 475 547 37,000  Level FlightAware
10:14AM 63.9780 -16.3030 286° West 474 545 37,000  Level FlightAware
10:15AM 63.9980 -16.4650 286° West 473 544 37,000  Level FlightAware
10:16AM 64.0190 -16.6330 286° West 472 543 37,000  Level FlightAware
10:16AM 64.0370 -16.7850 285° West 472 543 37,000  Level FlightAware
10:17AM 64.0580 -16.9570 286° West 471 542 37,000  Level FlightAware
10:17AM 64.0800 -17.1400 285° West 470 541 37,000  Level FlightAware
10:18AM 64.0980 -17.2940 285° West 469 540 37,000  Level FlightAware
10:18AM 64.1180 -17.4650 285° West 468 539 37,000  Level FlightAware
10:19AM 64.1390 -17.6480 285° West 465 535 37,000  Level FlightAware
10:20AM 64.1560 -17.7950 285° West 459 528 37,000  Level FlightAware
10:20AM 64.1760 -17.9660 285° West 464 534 37,000  Level FlightAware
10:21AM 64.1940 -18.1300 284° West 468 539 37,000  Level FlightAware
10:21AM 64.2130 -18.3050 284° West 468 539 37,000  Level FlightAware
10:22AM 64.2300 -18.4580 284° West 467 537 37,000  Level FlightAware
10:23AM 64.2480 -18.6290 284° West 467 537 37,000  Level FlightAware
10:23AM 64.2680 -18.8120 284° West 470 541 37,000  Level FlightAware
10:24AM 64.2830 -18.9570 283° West 470 541 37,000  Level FlightAware
10:24AM 64.3040 -19.1530 284° West 470 541 37,000  Level FlightAware
10:25AM 64.3210 -19.3260 283° West 470 541 37,000  Level FlightAware
10:25AM 64.3370 -19.4830 283° West 471 542 37,000  Level FlightAware
10:26AM 64.3520 -19.6280 284° West 470 541 37,000  Level FlightAware
10:27AM 64.3710 -19.8260 283° West 470 541 37,000  Level FlightAware
10:27AM 64.3900 -20.0120 283° West 470 541 37,000  Level FlightAware
10:28AM 64.4040 -20.1650 282° West 468 539 37,000  Level FlightAware
10:28AM 64.4220 -20.3510 283° West 465 535 37,000  Level FlightAware
10:29AM 64.4380 -20.5220 282° West 464 534 37,000  Level FlightAware
10:30AM 64.4520 -20.6740 282° West 464 534 37,000  Level FlightAware
10:30AM 64.4690 -20.8600 282° West 464 534 37,000  Level FlightAware
10:31AM 64.4840 -21.0260 282° West 463 533 37,000  Level FlightAware
10:31AM 64.5000 -21.1990 282° West 463 533 37,000  Level FlightAware
10:32AM 64.5130 -21.3510 281° West 464 534 37,000  Level FlightAware
10:33AM 64.5300 -21.5480 281° West 463 533 37,000  Level FlightAware
10:33AM 64.5430 -21.7070 281° West 463 533 37,000  Level FlightAware
10:34AM 64.5560 -21.8590 281° West 464 534 37,000  Level FlightAware
10:34AM 64.5710 -22.0420 281° West 465 535 37,000  Level FlightAware
10:35AM 64.5860 -22.2240 281° West 466 536 37,000  Level FlightAware
10:35AM 64.6000 -22.4020 280° West 465 535 37,000  Level FlightAware
10:36AM 64.6130 -22.5680 280° West 466 536 37,000  Level FlightAware
10:37AM 64.6270 -22.7460 280° West 466 536 37,000  Level FlightAware
10:37AM 64.6390 -22.9020 280° West 465 535 37,000  Level FlightAware
10:38AM 64.6510 -23.0670 280° West 464 534 37,000  Level FlightAware
10:38AM 64.6650 -23.2580 280° West 464 534 37,000  Level FlightAware
10:39AM 64.6770 -23.4150 280° West 463 533 37,000  Level FlightAware
10:39AM 64.6890 -23.5910 279° West 464 534 37,000  Level FlightAware
10:40AM 64.7020 -23.7680 280° West 462 532 37,000  Level FlightAware
10:41AM 64.7130 -23.9360 279° West 461 531 37,000  Level FlightAware
10:41AM 64.7250 -24.1030 280° West 461 531 37,000  Level FlightAware
10:42AM 64.7360 -24.2780 278° West 460 529 37,000  Level FlightAware
10:42AM 64.7470 -24.4580 278° West 460 529 37,000  Level FlightAware
10:43AM 64.7660 -24.7400 279° West 461 531 37,000  Level FlightAware
10:44AM 64.7770 -24.9100 279° West 462 532 37,000  Level FlightAware
10:45AM 64.7880 -25.0890 278° West 461 531 37,000  Level FlightAware
10:45AM 64.7980 -25.2640 278° West 460 529 37,000  Level FlightAware
10:46AM 64.8080 -25.4290 278° West 459 528 37,000  Level FlightAware
10:46AM 64.8170 -25.6000 277° West 460 529 37,000  Level FlightAware
10:47AM 64.8270 -25.7760 278° West 460 529 37,000  Level FlightAware
10:47AM 64.8370 -25.9550 278° West 462 532 37,000  Level FlightAware
10:48AM 64.8460 -26.1240 277° West 462 532 37,000  Level FlightAware
10:49AM 64.8550 -26.2930 277° West 460 529 37,000  Level FlightAware
10:49AM 64.8650 -26.4800 277° West 459 528 37,000  Level FlightAware
10:50AM 64.8730 -26.6500 276° West 458 527 37,000  Level FlightAware
10:50AM 64.8800 -26.7990 276° West 457 526 37,000  Level FlightAware
10:51AM 64.8890 -26.9850 277° West 457 526 37,000  Level FlightAware
10:52AM 64.8970 -27.1590 276° West 458 527 37,000  Level FlightAware
10:52AM 64.9050 -27.3360 276° West 457 526 37,000  Level FlightAware
10:53AM 64.9130 -27.5070 276° West 457 526 37,000  Level FlightAware
10:53AM 64.9200 -27.6900 275° West 457 526 37,000  Level FlightAware
10:54AM 64.9290 -27.8910 276° West 457 526 37,000  Level FlightAware
10:55AM 64.9380 -28.1080 276° West 457 526 37,000  Level FlightAware
10:55AM 64.9430 -28.2600 275° West 457 526 37,000  Level FlightAware
10:56AM 64.9530 -28.5160 275° West 453 521 37,000  Level FlightAware
10:57AM 64.9590 -28.6700 275° West 452 520 37,000  Level FlightAware
10:57AM 64.9650 -28.8570 274° West 453 521 37,000  Level FlightAware
10:58AM 64.9730 -29.0850 275° West 453 521 37,000  Level FlightAware
10:59AM 64.9770 -29.2360 274° West 453 521 37,000  Level FlightAware
10:59AM 64.9840 -29.4410 275° West 455 524 37,000  Level FlightAware
11:00AM 64.9890 -29.6070 274° West 456 525 37,000  Level FlightAware
11:00AM 64.9940 -29.7820 274° West 455 524 37,000  Level FlightAware
11:01AM 64.9990 -29.9500 274° West 456 525 37,000  Level FlightAware
11:02AM 65.0050 -30.1630 274° West 457 526 37,000  Level FlightAware
11:02AM 65.0110 -30.3260 275° West 456 525 37,000  Level FlightAware
11:03AM 65.0160 -30.5140 274° West 456 525 37,000  Level FlightAware
11:03AM 65.0220 -30.6930 275° West 451 519 37,000  Level FlightAware
11:04AM 65.0270 -30.8840 274° West 449 517 37,000  Level FlightAware
11:05AM 65.0320 -31.0730 274° West 449 517 37,000  Level FlightAware
11:05AM 65.0370 -31.2710 274° West 447 514 37,000  Level FlightAware
11:06AM 65.0410 -31.4290 274° West 448 516 37,000  Level FlightAware
11:07AM 65.0460 -31.6470 273° West 448 516 37,000  Level FlightAware
11:07AM 65.0500 -31.8050 274° West 448 516 37,000  Level FlightAware
11:08AM 65.0530 -31.9590 273° West 448 516 37,000  Level FlightAware
11:09AM 65.0570 -32.1140 274° West 448 516 37,000  Level FlightAware
11:09AM 65.0600 -32.2640 273° West 448 516 37,000  Level FlightAware
11:10AM 65.0630 -32.4220 273° West 448 516 37,000  Level FlightAware
11:10AM 65.0670 -32.5730 274° West 448 516 37,000  Level FlightAware
11:11AM 65.0700 -32.7310 273° West 448 516 37,000  Level FlightAware
11:12AM 65.0730 -32.8770 273° West 448 516 37,000  Level FlightAware
11:12AM 65.0770 -33.0360 273° West 448 516 37,000  Level FlightAware
11:13AM 65.0800 -33.1910 273° West 448 516 37,000  Level FlightAware
11:13AM 65.0840 -33.3450 274° West 448 516 37,000  Level FlightAware
11:14AM 65.0870 -33.5000 273° West 448 516 37,000  Level FlightAware
11:15AM 65.0900 -33.6500 273° West 448 516 37,000  Level FlightAware
11:15AM 65.0940 -33.8050 274° West 448 516 37,000  Level FlightAware
11:16AM 65.0970 -33.9590 273° West 448 516 37,000  Level FlightAware
11:17AM 65.1000 -34.1100 273° West 448 516 37,000  Level FlightAware
11:19AM 64.9794 -34.6077 240° Southwest  Level Estimated
11:20AM 64.9180 -34.8570 240° Southwest  Level Estimated
11:21AM 64.8561 -35.1051 240° Southwest  Level Estimated
11:22AM 64.7939 -35.3521 239° Southwest  Level Estimated
11:23AM 64.7312 -35.5979 239° Southwest  Level Estimated
11:24AM 64.6681 -35.8426 239° Southwest  Level Estimated
11:25AM 64.6047 -36.0861 239° Southwest  Level Estimated
11:26AM 64.5408 -36.3285 239° Southwest  Level Estimated
11:27AM 64.4765 -36.5698 238° Southwest  Level Estimated
11:28AM 64.4119 -36.8100 238° Southwest  Level Estimated
11:29AM 64.3468 -37.0490 238° Southwest  Level Estimated
11:30AM 64.2814 -37.2869 238° Southwest  Level Estimated
11:31AM 64.2156 -37.5236 237° Southwest  Level Estimated
11:32AM 64.1494 -37.7592 237° Southwest  Level Estimated
11:33AM 64.0828 -37.9937 237° Southwest  Level Estimated
11:34AM 64.0158 -38.2271 237° Southwest  Level Estimated
11:35AM 63.9485 -38.4594 237° Southwest  Level Estimated
11:36AM 63.8808 -38.6905 236° Southwest  Level Estimated
11:37AM 63.8127 -38.9205 236° Southwest  Level Estimated
11:38AM 63.7443 -39.1494 236° Southwest  Level Estimated
11:39AM 63.6755 -39.3773 236° Southwest  Level Estimated
11:40AM 63.6063 -39.6040 236° Southwest  Level Estimated
11:41AM 63.5368 -39.8296 235° Southwest  Level Estimated
11:42AM 63.4670 -40.0541 235° Southwest  Level Estimated
11:43AM 63.3968 -40.2775 235° Southwest  Level Estimated
11:44AM 63.3262 -40.4998 235° Southwest  Level Estimated
11:45AM 63.2553 -40.7210 235° Southwest  Level Estimated
11:46AM 63.1841 -40.9411 234° Southwest  Level Estimated
11:47AM 63.1125 -41.1602 234° Southwest  Level Estimated
11:48AM 63.0406 -41.3781 234° Southwest  Level Estimated
11:49AM 62.9683 -41.5950 234° Southwest  Level Estimated
11:50AM 62.8958 -41.8108 234° Southwest  Level Estimated
11:51AM 62.8229 -42.0256 233° Southwest  Level Estimated
11:52AM 62.7496 -42.2393 233° Southwest  Level Estimated
11:53AM 62.6761 -42.4519 233° Southwest  Level Estimated
11:54AM 62.6022 -42.6635 233° Southwest  Level Estimated
11:55AM 62.5280 -42.8740 233° Southwest  Level Estimated
11:56AM 62.4535 -43.0835 232° Southwest  Level Estimated
11:57AM 62.3787 -43.2919 232° Southwest  Level Estimated
11:58AM 62.3035 -43.4993 232° Southwest  Level Estimated
11:59AM 62.2281 -43.7056 232° Southwest  Level Estimated
12:00PM 62.1524 -43.9110 232° Southwest  Level Estimated
12:01PM 62.0763 -44.1152 232° Southwest  Level Estimated
12:02PM 62.0000 -44.3185 231° Southwest  Level Estimated
12:03PM 61.9233 -44.5208 231° Southwest  Level Estimated
12:04PM 61.8464 -44.7220 231° Southwest  Level Estimated
12:05PM 61.7692 -44.9222 231° Southwest  Level Estimated
12:05PM 65.0380 -48.7130 231° Southwest 444 511 37,000  Level FlightAware
12:06PM 61.6916 -45.1215 231° Southwest  Level Estimated
12:06PM 65.0340 -48.8720 267° West 444 511 37,000  Level FlightAware
12:07PM 65.0290 -49.0400 266° West 444 511 37,000  Level FlightAware
12:07PM 65.0240 -49.1890 266° West 444 511 37,000  Level FlightAware
12:08PM 65.0200 -49.3410 267° West 444 511 37,000  Level FlightAware
12:08PM 65.0160 -49.4900 266° West 444 511 37,000  Level FlightAware
12:09PM 65.0110 -49.6420 266° West 444 511 37,000  Level FlightAware
12:10PM 65.0070 -49.7950 267° West 444 511 37,000  Level FlightAware
12:10PM 65.0020 -49.9430 265° West 444 511 37,000  Level FlightAware
12:11PM 64.9980 -50.0960 267° West 444 511 37,000  Level FlightAware
12:12PM 64.9930 -50.2440 265° West 444 511 37,000  Level FlightAware
12:12PM 64.9890 -50.4010 267° West 444 511 37,000  Level FlightAware
12:13PM 64.9840 -50.5530 266° West 444 511 37,000  Level FlightAware
12:14PM 64.9780 -50.7430 266° West 444 511 37,000  Level FlightAware
12:14PM 64.9740 -50.8950 267° West 444 511 37,000  Level FlightAware
12:15PM 64.9700 -51.0350 266° West 444 511 37,000  Level FlightAware
12:15PM 64.8920 -51.5740 251° West 452 520 37,000  Level FlightAware
12:16PM 64.8770 -51.7660 260° West 452 520 37,000  Level FlightAware
12:17PM 64.8640 -51.9340 260° West 453 521 37,000  Level FlightAware
12:17PM 64.8530 -52.0750 260° West 453 521 37,000  Level FlightAware
12:18PM 64.8410 -52.2150 259° West 453 521 37,000  Level FlightAware
12:19PM 64.8200 -52.5000 260° West 454 522 37,000  Level FlightAware
12:19PM 64.8070 -52.6490 258° West 454 522 37,000  Level FlightAware
12:20PM 64.7950 -52.7970 259° West 454 522 37,000  Level FlightAware
12:20PM 64.7830 -52.9450 259° West 454 522 37,000  Level FlightAware
12:21PM 64.7670 -53.1340 259° West 454 522 37,000  Level FlightAware
12:22PM 64.7540 -53.2860 259° West 454 522 37,000  Level FlightAware
12:22PM 64.7410 -53.4420 259° West 454 522 37,000  Level FlightAware
12:23PM 64.7290 -53.5900 259° West 454 522 37,000  Level FlightAware
12:24PM 64.7170 -53.7300 259° West 454 522 37,000  Level FlightAware
12:24PM 64.7050 -53.8810 260° West 454 522 37,000  Level FlightAware
12:25PM 64.6920 -54.0330 259° West 454 522 37,000  Level FlightAware
12:25PM 64.6800 -54.1850 260° West 454 522 37,000  Level FlightAware
12:26PM 64.6670 -54.3400 259° West 454 522 37,000  Level FlightAware
12:27PM 64.6540 -54.4880 258° West 454 522 37,000  Level FlightAware
12:27PM 64.6420 -54.6350 259° West 454 522 37,000  Level FlightAware
12:28PM 64.6300 -54.7820 259° West 454 522 37,000  Level FlightAware
12:30PM 64.4652 -55.0680 217° Southwest  Level Estimated
12:31PM 64.3671 -55.2363 217° Southwest  Level Estimated
12:31PM 64.5000 -56.0667 216° Southwest 460 529 37,000  Level Gander Center
12:32PM 64.2687 -55.4033 216° Southwest  Level Estimated
12:32PM 64.4833 -56.3333 262° West 460 529 37,000  Level Gander Center
12:33PM 64.1702 -55.5692 216° Southwest  Level Estimated
12:33PM 64.4333 -56.6167 248° West 460 529 37,000  Level Gander Center
12:34PM 64.0715 -55.7339 216° Southwest  Level Estimated
12:34PM 64.4167 -56.8833 262° West 460 529 37,000  Level Gander Center
12:35PM 63.9726 -55.8975 216° Southwest  Level Estimated
12:35PM 64.3833 -57.2000 256° West 460 529 37,000  Level Gander Center
12:36PM 63.8735 -56.0598 216° Southwest  Level Estimated
12:36PM 64.3500 -57.4667 254° West 470 541 37,000  Level Gander Center
12:37PM 64.3167 -57.7333 254° West 470 541 37,000  Level Gander Center
12:38PM 64.2500 -58.0667 245° Southwest 460 529 37,000  Level Montreal Center
12:39PM 64.2167 -58.3667 256° West 460 529 37,000  Level Montreal Center
12:40PM 64.1833 -58.6167 253° West 460 529 37,000  Level Montreal Center
12:41PM 64.1500 -58.8833 254° West 460 529 37,000  Level Montreal Center
12:42PM 64.0333 -59.1000 219° Southwest 470 541 37,000  Level Montreal Center
12:43PM 63.9333 -59.2833 219° Southwest 470 541 37,000  Level Montreal Center
12:44PM 63.8333 -59.4833 221° Southwest 480 552 37,000  Level Montreal Center
12:45PM 63.7333 -59.6667 219° Southwest 470 541 37,000  Level Montreal Center
12:46PM 63.6333 -59.8667 222° Southwest 480 552 37,000  Level Montreal Center
12:47PM 63.5333 -60.0500 219° Southwest 480 552 37,000  Level Montreal Center
12:49PM 63.3833 -60.4333 229° Southwest 480 552 37,000  Level Gander Center
12:50PM 63.2667 -60.6167 215° Southwest 470 541 37,000  Level Gander Center
12:51PM 63.1667 -60.8833 230° Southwest 490 564 37,000  Level Gander Center
12:52PM 63.0500 -61.0333 210° Southwest 480 552 37,000  Level Gander Center
12:53PM 62.9333 -61.2000 213° Southwest 490 564 37,000  Level Montreal Center
12:54PM 62.8333 -61.3500 214° Southwest 470 541 37,000  Level Montreal Center
12:55PM 62.7167 -61.5500 218° Southwest 480 552 37,000  Level Montreal Center
12:57PM 62.5333 -61.9667 226° Southwest 480 552 37,000  Level Gander Center
12:58PM 62.4667 -62.0500 210° Southwest 480 552 37,000  Level Montreal Center
12:59PM 62.3500 -62.2167 214° Southwest 480 552 37,000  Level Montreal Center
01:00PM 62.2500 -62.4000 221° Southwest 490 564 37,000  Level Montreal Center
01:01PM 62.1333 -62.5500 211° Southwest 480 552 37,000  Level Montreal Center
01:02PM 62.0333 -62.7500 223° Southwest 480 552 37,000  Level Montreal Center
01:03PM 61.9167 -62.9000 211° Southwest 480 552 37,000  Level Montreal Center
01:04PM 61.8333 -63.0833 226° Southwest 470 541 37,000  Level Montreal Center
01:05PM 61.7000 -63.3167 220° Southwest 530 610 37,000  Level Montreal Center
01:06PM 61.6167 -63.4667 221° Southwest 480 552 37,000 240 Level Montreal Center
01:07PM 61.5000 -63.6167 212° Southwest 470 541 37,500 480 Climbing Montreal Center
01:08PM 61.4000 -63.7833 219° Southwest 470 541 38,000 240 Climbing Montreal Center
01:09PM 61.3000 -63.9333 216° Southwest 480 552 38,000  Level Montreal Center
01:10PM 61.2000 -64.1167 221° Southwest 480 552 38,000  Level Montreal Center
01:11PM 61.0833 -64.3000 217° Southwest 480 552 38,000  Level Montreal Center
01:12PM 60.9833 -64.4333 213° Southwest 460 529 38,000  Level Montreal Center
01:13PM 60.8833 -64.6167 222° Southwest 470 541 38,000  Level Montreal Center
01:14PM 60.7667 -64.7500 209° Southwest 470 541 38,000  Level Montreal Center
01:15PM 60.6667 -64.9333 222° Southwest 470 541 38,000  Level Montreal Center
01:16PM 60.5667 -65.0667 213° Southwest 470 541 38,000  Level Montreal Center
01:17PM 60.4500 -65.2333 215° Southwest 470 541 38,000  Level Montreal Center
01:18PM 60.3500 -65.3833 217° Southwest 470 541 38,000  Level Montreal Center
01:19PM 60.2333 -65.5500 215° Southwest 470 541 38,000  Level Montreal Center
01:20PM 60.1333 -65.6833 214° Southwest 470 541 38,000  Level Montreal Center
01:21PM 60.0333 -65.8500 220° Southwest 470 541 38,000  Level Montreal Center
01:22PM 59.9167 -65.9833 210° Southwest 470 541 38,000  Level Montreal Center
01:23PM 59.8167 -66.1500 220° Southwest 470 541 38,000  Level Montreal Center
01:24PM 59.7000 -66.2833 210° Southwest 470 541 38,000  Level Montreal Center
01:25PM 59.6000 -66.4500 220° Southwest 470 541 38,000  Level Montreal Center
01:26PM 59.4833 -66.5833 210° Southwest 470 541 38,000  Level Montreal Center
01:27PM 59.3833 -66.7333 217° Southwest 470 541 38,000  Level Montreal Center
01:28PM 59.2833 -66.8667 214° Southwest 470 541 38,000  Level Montreal Center
01:29PM 59.1833 -67.0167 218° Southwest 470 541 38,000  Level Montreal Center
01:30PM 59.0667 -67.1500 210° Southwest 470 541 38,000  Level Montreal Center
01:31PM 58.9667 -67.3000 218° Southwest 470 541 38,000  Level Montreal Center
01:32PM 58.8500 -67.4333 211° Southwest 460 529 38,000  Level Montreal Center
01:33PM 58.7500 -67.5833 218° Southwest 470 541 38,000  Level Montreal Center
01:34PM 58.6333 -67.7500 217° Southwest 470 541 38,000  Level Montreal Center
01:35PM 58.5167 -67.8667 208° Southwest 470 541 38,000  Level Montreal Center
01:36PM 58.4167 -67.9833 211° Southwest 470 541 38,000  Level Montreal Center
01:37PM 58.3000 -68.1333 214° Southwest 460 529 38,000  Level Montreal Center
01:38PM 58.2000 -68.2667 215° Southwest 460 529 38,000  Level Montreal Center
01:39PM 58.0833 -68.4167 214° Southwest 470 541 38,000  Level Montreal Center
01:40PM 57.9667 -68.5667 214° Southwest 460 529 38,000  Level Montreal Center
01:41PM 57.8833 -68.7167 224° Southwest 470 541 38,000  Level Montreal Center
01:42PM 57.7667 -68.8500 211° Southwest 470 541 38,000  Level Montreal Center
01:43PM 57.6667 -69.0000 219° Southwest 470 541 38,000  Level Montreal Center
01:44PM 57.5667 -69.1167 212° Southwest 470 541 38,000  Level Montreal Center
01:45PM 57.4500 -69.2667 215° Southwest 460 529 38,000  Level Montreal Center
01:46PM 57.3500 -69.4000 216° Southwest 460 529 38,000  Level Montreal Center
01:47PM 57.2500 -69.5500 219° Southwest 470 541 38,000  Level Montreal Center
01:48PM 57.1333 -69.7000 215° Southwest 470 541 38,000  Level Montreal Center
01:49PM 57.0333 -69.8333 216° Southwest 470 541 38,000  Level Montreal Center
01:50PM 56.9167 -69.9833 215° Southwest 470 541 38,000  Level Montreal Center
01:51PM 56.8167 -70.1167 216° Southwest 470 541 38,000  Level Montreal Center
01:52PM 56.7000 -70.2500 212° Southwest 470 541 38,000  Level Montreal Center
01:53PM 56.6000 -70.4000 220° Southwest 470 541 38,000  Level Montreal Center
01:54PM 56.4833 -70.5333 212° Southwest 470 541 38,000  Level Montreal Center
01:55PM 56.3833 -70.6667 216° Southwest 460 529 38,000  Level Montreal Center
01:56PM 56.2833 -70.7667 209° Southwest 470 541 38,000  Level Montreal Center
01:57PM 56.1667 -70.9167 216° Southwest 460 529 38,000  Level Montreal Center
01:58PM 56.0500 -71.0500 213° Southwest 460 529 38,000  Level Montreal Center
01:59PM 55.9333 -71.1833 213° Southwest 460 529 38,000  Level Montreal Center
02:00PM 55.8500 -71.3167 222° Southwest 460 529 38,000  Level Montreal Center
02:01PM 55.7333 -71.4500 213° Southwest 460 529 38,000  Level Montreal Center
02:02PM 55.6167 -71.5500 206° Southwest 470 541 38,000  Level Montreal Center
02:03PM 55.5167 -71.6833 217° Southwest 460 529 38,000  Level Montreal Center
02:04PM 55.4000 -71.8167 213° Southwest 470 541 38,000  Level Montreal Center
02:05PM 55.3000 -71.9333 214° Southwest 470 541 38,000  Level Montreal Center
02:06PM 55.1833 -72.0667 213° Southwest 470 541 38,000  Level Montreal Center
02:07PM 55.0833 -72.2000 217° Southwest 470 541 38,000  Level Montreal Center
02:08PM 54.9667 -72.3167 210° Southwest 470 541 38,000  Level Montreal Center
02:09PM 54.8500 -72.4500 213° Southwest 470 541 38,000  Level Montreal Center
02:10PM 54.7333 -72.5833 213° Southwest 470 541 38,000  Level Montreal Center
02:11PM 54.6333 -72.7000 214° Southwest 470 541 38,000  Level Montreal Center
02:12PM 54.5167 -72.8333 214° Southwest 470 541 38,000  Level Montreal Center
02:13PM 54.4167 -72.9500 214° Southwest 470 541 38,000  Level Montreal Center
02:14PM 54.3000 -73.0833 214° Southwest 470 541 38,000  Level Montreal Center
02:16PM 54.0667 -73.3167 210° Southwest 470 541 38,000  Level Montreal Center
02:17PM 53.9500 -73.4167 207° Southwest 470 541 38,000  Level Montreal Center
02:18PM 53.8500 -73.5333 215° Southwest 470 541 38,000  Level Montreal Center
02:19PM 53.7333 -73.6500 211° Southwest 480 552 38,000  Level Montreal Center
02:20PM 53.6167 -73.7833 214° Southwest 470 541 38,000  Level Montreal Center
02:21PM 53.4833 -73.8667 200° South 470 541 38,000  Level Montreal Center
02:22PM 53.3667 -73.9833 211° Southwest 480 552 38,000  Level Montreal Center
02:23PM 53.2500 -74.0833 207° Southwest 470 541 38,000  Level Montreal Center
02:24PM 53.1333 -74.1667 203° Southwest 470 541 38,000  Level Montreal Center
02:25PM 53.0000 -74.2833 208° Southwest 470 541 38,000  Level Montreal Center
02:26PM 52.8833 -74.3667 203° Southwest 480 552 38,000  Level Montreal Center
02:27PM 52.7667 -74.4667 207° Southwest 470 541 38,000  Level Montreal Center
02:28PM 52.6667 -74.5833 215° Southwest 480 552 38,000  Level Montreal Center
02:29PM 52.5500 -74.6667 203° Southwest 480 552 38,000  Level Montreal Center
02:30PM 52.4167 -74.7500 201° Southwest 480 552 38,000  Level Montreal Center
02:31PM 52.2833 -74.8667 208° Southwest 490 564 38,000  Level Montreal Center
02:32PM 52.1667 -74.9500 204° Southwest 480 552 38,000  Level Montreal Center
02:33PM 52.0500 -75.0333 204° Southwest 480 552 38,000  Level Montreal Center
02:34PM 51.9333 -75.1500 212° Southwest 470 541 38,000  Level Montreal Center
02:35PM 51.8167 -75.2333 204° Southwest 480 552 38,000  Level Montreal Center
02:36PM 51.7000 -75.3167 204° Southwest 470 541 38,000  Level Montreal Center
02:37PM 51.5667 -75.4167 205° Southwest 470 541 38,000  Level Montreal Center
02:38PM 51.4500 -75.5000 204° Southwest 470 541 38,000  Level Montreal Center
02:39PM 51.3333 -75.5833 204° Southwest 480 552 38,000  Level Montreal Center
02:40PM 51.2167 -75.7000 212° Southwest 470 541 38,000  Level Montreal Center
02:41PM 51.1000 -75.7833 204° Southwest 480 552 38,000  Level Montreal Center
02:42PM 50.9833 -75.8500 200° South 470 541 38,000  Level Montreal Center
02:43PM 50.8667 -75.9667 212° Southwest 470 541 38,000  Level Montreal Center
02:44PM 50.7333 -76.0500 202° Southwest 470 541 38,000  Level Montreal Center
02:45PM 50.6333 -76.1167 203° Southwest 470 541 38,000  Level Montreal Center
02:46PM 50.5000 -76.2333 209° Southwest 470 541 38,000  Level Montreal Center
02:47PM 50.3833 -76.3167 204° Southwest 470 541 38,000  Level Montreal Center
02:48PM 50.2667 -76.3833 200° South 470 541 38,000  Level Montreal Center
02:49PM 50.1500 -76.4667 205° Southwest 470 541 38,000  Level Montreal Center
02:50PM 50.0167 -76.5667 206° Southwest 470 541 38,000  Level Montreal Center
02:51PM 49.9000 -76.6500 205° Southwest 470 541 38,000  Level Montreal Center
02:52PM 49.7833 -76.7167 200° South 470 541 38,000  Level Montreal Center
02:53PM 49.6667 -76.8167 209° Southwest 470 541 38,000  Level Montreal Center
02:54PM 49.5500 -76.9000 205° Southwest 460 529 38,000  Level Montreal Center
02:55PM 49.4333 -76.9667 200° South 470 541 38,000  Level Montreal Center
02:56PM 49.3167 -77.0500 205° Southwest 480 552 38,000  Level Montreal Center
02:57PM 49.2000 -77.1500 209° Southwest 450 518 38,000  Level Montreal Center
02:58PM 49.0833 -77.2167 201° Southwest 470 541 38,000  Level Montreal Center
02:59PM 48.9500 -77.3000 202° Southwest 470 541 38,000  Level Montreal Center
03:00PM 48.8333 -77.4000 209° Southwest 470 541 38,000  Level Montreal Center
03:01PM 48.7167 -77.4667 201° Southwest 470 541 38,000  Level Montreal Center
03:02PM 48.5833 -77.5333 198° South 470 541 38,000  Level Montreal Center
03:03PM 48.4667 -77.6167 205° Southwest 470 541 38,000  Level Montreal Center
03:09PM 47.7650 -78.0610 205° Southwest 466 536 38,000  Level FlightAware
03:09PM 47.6910 -78.1030 201° Southwest 463 533 38,000  Level FlightAware
03:10PM 47.6250 -78.1420 202° Southwest 460 529 38,000  Level FlightAware
03:11PM 47.5580 -78.1800 201° Southwest 454 522 38,000  Level FlightAware
03:11PM 47.4990 -78.2140 201° Southwest 451 519 38,000  Level FlightAware
03:12PM 47.4220 -78.2580 201° Southwest 449 517 38,000  Level FlightAware
03:12PM 47.3490 -78.3000 201° Southwest 449 517 38,000  Level FlightAware
03:13PM 47.2870 -78.3350 201° Southwest 452 520 38,000  Level FlightAware
03:14PM 47.2110 -78.3780 201° Southwest 453 521 38,000  Level FlightAware
03:14PM 47.1470 -78.4140 201° Southwest 455 524 38,000  Level FlightAware
03:15PM 47.0820 -78.4510 201° Southwest 454 522 38,000  Level FlightAware
03:15PM 47.0100 -78.4910 201° Southwest 454 522 38,000  Level FlightAware
03:16PM 46.9380 -78.5320 201° Southwest 455 524 38,000  Level FlightAware
03:16PM 46.8760 -78.5660 201° Southwest 454 522 38,000  Level FlightAware
03:17PM 46.8050 -78.6060 201° Southwest 454 522 38,000  Level FlightAware
03:18PM 46.7310 -78.6480 201° Southwest 452 520 38,000  Level FlightAware
03:18PM 46.6690 -78.6820 201° Southwest 449 517 38,000  Level FlightAware
03:19PM 46.5990 -78.7210 201° Southwest 447 514 38,000  Level FlightAware
03:19PM 46.5320 -78.7570 200° South 449 517 38,000  Level FlightAware
03:20PM 46.4630 -78.7950 201° Southwest 450 518 38,000  Level FlightAware
03:21PM 46.3940 -78.8340 201° Southwest 444 511 38,000  Level FlightAware
03:21PM 46.3280 -78.8690 200° South 439 505 38,000  Level FlightAware
03:22PM 46.2600 -78.9070 201° Southwest 438 504 38,000  Level FlightAware
03:22PM 46.1970 -78.9410 200° South 438 504 38,000  Level FlightAware
03:23PM 46.1530 -78.9650 201° Southwest 442 509 38,000  Level FlightAware
03:23PM 46.0750 -79.0070 200° South 440 506 38,000  Level FlightAware
03:24PM 46.0240 -79.0350 201° Southwest 440 506 38,000  Level FlightAware
03:24PM 45.9630 -79.0680 201° Southwest 441 507 38,000  Level FlightAware
03:25PM 45.8900 -79.1070 200° South 442 509 38,000  Level FlightAware
03:26PM 45.8230 -79.1430 201° Southwest 438 504 38,000  Level FlightAware
03:26PM 45.7610 -79.1760 200° South 437 503 38,000  Level FlightAware
03:27PM 45.6940 -79.2120 201° Southwest 437 503 38,000  Level FlightAware
03:27PM 45.6280 -79.2470 200° South 436 502 38,000  Level FlightAware
03:28PM 45.5640 -79.2810 200° South 437 503 38,000  Level FlightAware
03:28PM 45.4890 -79.3210 201° Southwest 438 504 38,000  Level FlightAware
03:29PM 45.4290 -79.3530 201° Southwest 439 505 38,000  Level FlightAware
03:30PM 45.3570 -79.3910 200° South 438 504 38,000  Level FlightAware
03:30PM 45.2960 -79.4230 200° South 436 502 38,000  Level FlightAware
03:31PM 45.2330 -79.4560 200° South 435 501 38,000  Level FlightAware
03:31PM 45.1640 -79.4920 200° South 438 504 38,000  Level FlightAware
03:32PM 45.0960 -79.5280 200° South 441 507 38,000  Level FlightAware
03:33PM 45.0330 -79.5610 200° South 442 509 38,000  Level FlightAware
03:33PM 44.9650 -79.5960 200° South 442 509 38,000  Level FlightAware
03:34PM 44.8870 -79.6360 200° South 438 504 38,000  Level FlightAware
03:34PM 44.8250 -79.6680 200° South 436 502 38,000  Level FlightAware
03:35PM 44.7550 -79.7050 201° Southwest 434 499 38,000  Level FlightAware
03:36PM 44.6700 -79.7480 200° South 432 497 38,000  Level FlightAware
03:36PM 44.6170 -79.7760 201° Southwest 430 495 38,000  Level FlightAware
03:37PM 44.5440 -79.8260 206° Southwest 424 488 38,000  Level FlightAware
03:37PM 44.4950 -79.8700 213° Southwest 424 488 38,000  Level FlightAware
03:38PM 44.4360 -79.9240 213° Southwest 429 494 38,000  Level FlightAware
03:38PM 44.3870 -79.9690 213° Southwest 429 494 38,000  Level FlightAware
03:39PM 44.3300 -80.0200 213° Southwest 430 495 38,000  Level FlightAware
03:40PM 44.2740 -80.0700 213° Southwest 430 495 38,000  Level FlightAware
03:40PM 44.2140 -80.1240 213° Southwest 430 495 38,000  Level FlightAware
03:41PM 44.1530 -80.1780 212° Southwest 426 490 38,000  Level FlightAware
03:41PM 44.0960 -80.2290 213° Southwest 425 489 38,000  Level FlightAware
03:42PM 44.0370 -80.2810 212° Southwest 424 488 38,000  Level FlightAware
03:43PM 43.9810 -80.3310 213° Southwest 425 489 38,000  Level FlightAware
03:43PM 43.9230 -80.3820 212° Southwest 424 488 38,000  Level FlightAware
03:44PM 43.8650 -80.4330 212° Southwest 423 487 38,000  Level FlightAware
03:44PM 43.8090 -80.4820 212° Southwest 423 487 38,000  Level FlightAware
03:45PM 43.7490 -80.5350 213° Southwest 423 487 38,000  Level FlightAware
03:45PM 43.6930 -80.5840 212° Southwest 423 487 38,000  Level FlightAware
03:46PM 43.6330 -80.6370 213° Southwest 424 488 38,000  Level FlightAware
03:47PM 43.5830 -80.6800 212° Southwest 426 490 38,000  Level FlightAware
03:47PM 43.5150 -80.7380 212° Southwest 425 489 38,000  Level FlightAware
03:48PM 43.4630 -80.7840 213° Southwest 424 488 38,000  Level FlightAware
03:48PM 43.4000 -80.8380 212° Southwest 425 489 38,000  Level FlightAware
03:49PM 43.3460 -80.8850 212° Southwest 426 490 38,000  Level FlightAware
03:50PM 43.2840 -80.9380 212° Southwest 427 491 38,000  Level FlightAware
03:50PM 43.2310 -80.9840 212° Southwest 429 494 38,000  Level FlightAware
03:51PM 43.1660 -81.0390 212° Southwest 430 495 38,000  Level FlightAware
03:51PM 43.1060 -81.0910 212° Southwest 430 495 38,000  Level FlightAware
03:52PM 43.0490 -81.1390 212° Southwest 430 495 38,000  Level FlightAware
03:52PM 42.9830 -81.1810 205° Southwest 434 499 38,000  Level FlightAware
03:53PM 42.9210 -81.2210 205° Southwest 432 497 38,000  Level FlightAware
03:54PM 42.8580 -81.2600 204° Southwest 432 497 38,000  Level FlightAware
03:54PM 42.7950 -81.2990 204° Southwest 433 498 38,000  Level FlightAware
03:55PM 42.7300 -81.3390 204° Southwest 433 498 38,000  Level FlightAware
03:55PM 42.6670 -81.3780 204° Southwest 434 499 38,000  Level FlightAware
03:56PM 42.6010 -81.4180 204° Southwest 435 501 38,000  Level FlightAware
03:57PM 42.5410 -81.4550 204° Southwest 436 502 38,000  Level FlightAware
03:57PM 42.4730 -81.4960 204° Southwest 436 502 38,000  Level FlightAware
03:58PM 42.4100 -81.5340 204° Southwest 436 502 38,000  Level FlightAware
03:58PM 42.3440 -81.5740 204° Southwest 436 502 38,000  Level FlightAware
03:59PM 42.2820 -81.6120 204° Southwest 435 501 38,000  Level FlightAware
03:59PM 42.2290 -81.6440 204° Southwest 435 501 38,000  Level FlightAware
04:00PM 42.1580 -81.6870 204° Southwest 434 499 38,000  Level FlightAware
04:01PM 42.0950 -81.7240 204° Southwest 433 498 38,000  Level FlightAware
04:01PM 42.0200 -81.7700 204° Southwest 433 498 38,000  Level FlightAware
04:02PM 41.9440 -81.8150 204° Southwest 433 498 38,000  Level FlightAware
04:03PM 41.8760 -81.8560 204° Southwest 432 497 38,000  Level FlightAware
04:03PM 41.8230 -81.8870 204° Southwest 432 497 38,000  Level FlightAware
04:04PM 41.7390 -81.9370 204° Southwest 431 496 38,000  Level FlightAware
04:05PM 41.6540 -81.9880 204° Southwest 431 496 38,000  Level FlightAware
04:05PM 41.5990 -82.0200 204° Southwest 431 496 38,000  Level FlightAware
04:06PM 41.5330 -82.0590 204° Southwest 430 495 38,000  Level FlightAware
04:06PM 41.4670 -82.0980 204° Southwest 430 495 38,000  Level FlightAware
04:07PM 41.4050 -82.1340 204° Southwest 430 495 38,000  Level FlightAware
04:07PM 41.3390 -82.1680 201° Southwest 434 499 38,000  Level FlightAware
04:08PM 41.2680 -82.1930 195° South 434 499 38,000  Level FlightAware
04:09PM 41.2050 -82.2170 196° South 433 498 38,000  Level FlightAware
04:09PM 41.1380 -82.2410 195° South 433 498 38,000  Level FlightAware
04:10PM 41.0680 -82.2660 195° South 433 498 38,000  Level FlightAware
04:10PM 41.0060 -82.2880 195° South 435 501 38,000  Level FlightAware
04:11PM 40.9510 -82.3080 195° South 435 501 38,000  Level FlightAware
04:11PM 40.8620 -82.3390 195° South 435 501 38,000  Level FlightAware
04:12PM 40.8010 -82.3610 195° South 434 499 38,000  Level FlightAware
04:13PM 40.7290 -82.3860 195° South 434 499 38,000  Level FlightAware
04:13PM 40.6640 -82.4090 195° South 436 502 38,000  Level FlightAware
04:14PM 40.5960 -82.4330 195° South 437 503 38,000  Level FlightAware
04:14PM 40.5270 -82.4580 195° South 438 504 38,000  Level FlightAware
04:15PM 40.4550 -82.4820 194° South 438 504 38,000  Level FlightAware
04:16PM 40.3860 -82.5070 195° South 437 503 38,000  Level FlightAware
04:16PM 40.3140 -82.5320 195° South 438 504 38,000  Level FlightAware
04:17PM 40.2520 -82.5540 195° South 439 505 38,000  Level FlightAware
04:17PM 40.1760 -82.5790 194° South 438 504 38,000  Level FlightAware
04:18PM 40.1160 -82.5900 188° South 440 506 38,000  Level FlightAware
04:18PM 40.0430 -82.5950 183° South 441 507 38,000  Level FlightAware
04:19PM 39.9690 -82.6010 184° South 440 506 38,000  Level FlightAware
04:20PM 39.8980 -82.6050 182° South 439 505 38,000  Level FlightAware
04:20PM 39.8320 -82.6100 183° South 437 503 38,000  Level FlightAware
04:21PM 39.7680 -82.6150 183° South 437 503 38,000  Level FlightAware
04:21PM 39.6800 -82.6200 183° South 438 504 38,000  Level FlightAware
04:22PM 39.6160 -82.6250 183° South 437 503 38,000  Level FlightAware
04:23PM 39.5420 -82.6300 183° South 437 503 38,000  Level FlightAware
04:23PM 39.4740 -82.6340 183° South 438 504 38,000  Level FlightAware
04:24PM 39.4070 -82.6390 183° South 439 505 38,000  Level FlightAware
04:24PM 39.3350 -82.6430 182° South 440 506 38,000  Level FlightAware
04:25PM 39.2620 -82.6480 183° South 438 504 38,000  Level FlightAware
04:25PM 39.1910 -82.6530 183° South 436 502 38,000  Level FlightAware
04:26PM 39.1160 -82.6580 183° South 434 499 38,000  Level FlightAware
04:27PM 39.0460 -82.6630 183° South 433 498 38,000  Level FlightAware
04:27PM 38.9820 -82.6670 183° South 432 497 38,000  Level FlightAware
04:28PM 38.9070 -82.6720 183° South 432 497 38,000  Level FlightAware
04:28PM 38.8420 -82.6760 183° South 432 497 38,000  Level FlightAware
04:29PM 38.7700 -82.6810 183° South 432 497 38,000  Level FlightAware
04:30PM 38.6940 -82.6860 183° South 433 498 38,000  Level FlightAware
04:30PM 38.6220 -82.6910 183° South 434 499 38,000  Level FlightAware
04:31PM 38.5580 -82.6950 183° South 434 499 38,000  Level FlightAware
04:31PM 38.4850 -82.7000 183° South 435 501 38,000  Level FlightAware
04:32PM 38.4330 -82.7030 183° South 435 501 38,000  Level FlightAware
04:33PM 38.3440 -82.7090 183° South 436 502 38,000  Level FlightAware
04:33PM 38.2770 -82.7130 183° South 435 501 38,000  Level FlightAware
04:34PM 38.2040 -82.7180 183° South 434 499 38,000  Level FlightAware
04:34PM 38.1370 -82.7220 183° South 435 501 38,000  Level FlightAware
04:35PM 38.0690 -82.7260 183° South 436 502 38,000  Level FlightAware
04:35PM 37.9920 -82.7310 183° South 436 502 38,000  Level FlightAware
04:36PM 37.9060 -82.7370 183° South 437 503 38,000  Level FlightAware
04:37PM 37.8360 -82.7410 183° South 437 503 38,000  Level FlightAware
04:37PM 37.7700 -82.7460 183° South 435 501 38,000  Level FlightAware
04:38PM 37.6970 -82.7610 189° South 432 497 38,000  Level FlightAware
04:38PM 37.6290 -82.7880 197° South 428 493 38,000  Level FlightAware
04:39PM 37.5720 -82.8210 205° Southwest 424 488 38,000  Level FlightAware
04:40PM 37.5010 -82.8680 208° Southwest 424 488 38,000  Level FlightAware
04:40PM 37.4390 -82.9080 207° Southwest 424 488 38,000  Level FlightAware
04:41PM 37.3840 -82.9430 207° Southwest 424 488 38,000  Level FlightAware
04:41PM 37.3234 -82.9847 209° Southwest 422 486 38,000  Level FlightAware ADS-B
04:42PM 37.2724 -83.0182 208° Southwest 422 486 38,000  Level FlightAware ADS-B
04:42PM 37.2139 -83.0564 207° Southwest 422 486 38,000  Level FlightAware ADS-B
04:43PM 37.1616 -83.0906 208° Southwest 422 486 38,000  Level FlightAware ADS-B
04:43PM 37.1080 -83.1255 207° Southwest 423 487 38,000  Level FlightAware ADS-B
04:44PM 37.0553 -83.1597 207° Southwest 424 488 38,000  Level FlightAware ADS-B
04:44PM 37.0018 -83.1944 207° Southwest 425 489 38,000  Level FlightAware ADS-B
04:45PM 36.9461 -83.2305 207° Southwest 424 488 38,000  Level FlightAware ADS-B
04:46PM 36.8917 -83.2657 207° Southwest 423 487 38,000  Level FlightAware ADS-B
04:46PM 36.8392 -83.2997 207° Southwest 421 484 38,000  Level FlightAware ADS-B
04:47PM 36.7861 -83.3340 207° Southwest 421 484 38,000  Level FlightAware ADS-B
04:47PM 36.7297 -83.3703 207° Southwest 420 483 38,000  Level FlightAware ADS-B
04:48PM 36.6761 -83.4047 207° Southwest 419 482 38,000  Level FlightAware ADS-B
04:48PM 36.6229 -83.4389 207° Southwest 419 482 38,000  Level FlightAware ADS-B
04:49PM 36.5706 -83.4724 207° Southwest 420 483 38,000  Level FlightAware ADS-B
04:49PM 36.5180 -83.5062 207° Southwest 421 484 38,000  Level FlightAware ADS-B
04:50PM 36.4650 -83.5400 207° Southwest 422 486 38,000  Level FlightAware ADS-B
04:50PM 36.4133 -83.5731 207° Southwest 423 487 38,000  Level FlightAware ADS-B
04:51PM 36.3575 -83.6085 207° Southwest 424 488 38,000  Level FlightAware ADS-B
04:51PM 36.3017 -83.6441 207° Southwest 425 489 38,000  Level FlightAware ADS-B
04:52PM 36.2353 -83.6862 207° Southwest 426 490 38,000  Level FlightAware ADS-B
04:52PM 36.1807 -83.7208 207° Southwest 426 490 38,000  Level FlightAware ADS-B
04:53PM 36.1263 -83.7552 207° Southwest 427 491 38,000  Level FlightAware ADS-B
04:53PM 36.0631 -83.7952 207° Southwest 426 490 38,000  Level FlightAware ADS-B
04:54PM 36.0086 -83.8296 207° Southwest 424 488 38,000  Level FlightAware ADS-B
04:54PM 35.9536 -83.8637 207° Southwest 425 489 38,000  Level FlightAware ADS-B
04:55PM 35.9140 -83.8833 202° Southwest 431 496 38,000  Level FlightAware ADS-B
04:55PM 35.8688 -83.9005 197° South 434 499 38,000  Level FlightAware ADS-B
04:56PM 35.8220 -83.9131 192° South 439 505 38,000  Level FlightAware ADS-B
04:56PM 35.7631 -83.9280 192° South 438 504 38,000  Level FlightAware ADS-B
04:57PM 35.7001 -83.9442 192° South 439 505 38,000  Level FlightAware ADS-B
04:57PM 35.6384 -83.9595 191° South 439 505 38,000  Level FlightAware ADS-B
04:58PM 35.5487 -83.9813 191° South 440 506 38,000  Level FlightAware ADS-B
04:58PM 35.4882 -83.9959 191° South 440 506 38,000  Level FlightAware ADS-B
04:59PM 35.4208 -84.0121 191° South 440 506 38,000  Level FlightAware ADS-B
05:00PM 35.3597 -84.0268 191° South 441 507 38,000  Level FlightAware ADS-B
05:00PM 35.2927 -84.0430 191° South 441 507 38,000  Level FlightAware ADS-B
05:01PM 35.2325 -84.0574 191° South 441 507 38,000  Level FlightAware ADS-B
05:01PM 35.1693 -84.0726 191° South 441 507 38,000  Level FlightAware ADS-B
05:02PM 35.0983 -84.0896 191° South 441 507 38,000  Level FlightAware ADS-B
05:02PM 35.0381 -84.1040 191° South 442 509 38,000  Level FlightAware ADS-B
05:03PM 34.9774 -84.1185 191° South 443 510 38,000  Level FlightAware ADS-B
05:03PM 34.8897 -84.1394 191° South 444 511 38,000  Level FlightAware ADS-B
05:04PM 34.8276 -84.1541 191° South 445 512 38,000  Level FlightAware ADS-B
05:04PM 34.7668 -84.1686 191° South 445 512 38,000  Level FlightAware ADS-B
05:05PM 34.7007 -84.1842 191° South 445 512 38,000  Level FlightAware ADS-B
05:05PM 34.6391 -84.1989 191° South 445 512 38,000  Level FlightAware ADS-B
05:06PM 34.5458 -84.2209 191° South 446 513 38,000  Level FlightAware ADS-B
05:07PM 34.4844 -84.2354 191° South 447 514 38,000  Level FlightAware ADS-B
05:07PM 34.4232 -84.2498 191° South 447 514 38,000  Level FlightAware ADS-B
05:08PM 34.3612 -84.2644 191° South 448 516 38,000  Level FlightAware ADS-B
05:08PM 34.2973 -84.2794 191° South 449 517 38,000  Level FlightAware ADS-B
05:09PM 34.2358 -84.2939 191° South 449 517 38,000  Level FlightAware ADS-B
05:09PM 34.1670 -84.3100 191° South 449 517 38,000  Level FlightAware
05:10PM 34.0950 -84.3270 191° South 448 516 38,000  Level FlightAware
05:10PM 34.0290 -84.3420 191° South 448 516 38,000  Level FlightAware
05:11PM 33.9560 -84.3590 191° South 450 518 38,000  Level FlightAware
05:11PM 33.9161 -84.3580 179° South 449 517 38,000  Level FlightAware ADS-B
05:12PM 33.8544 -84.3396 166° South 471 542 38,000  Level FlightAware ADS-B
05:12PM 33.7890 -84.3178 165° South 472 543 38,000  Level FlightAware ADS-B
05:13PM 33.7252 -84.2968 165° South 472 543 38,000  Level FlightAware ADS-B
05:13PM 33.6610 -84.2757 165° South 472 543 38,000 180 Level FlightAware ADS-B
05:14PM 33.5964 -84.2547 165° South 470 541 38,200 420 Climbing FlightAware ADS-B
05:15PM 33.5234 -84.2311 165° South 470 541 38,500 420 Climbing FlightAware ADS-B
05:15PM 33.4573 -84.2099 165° South 471 542 38,700 360 Climbing FlightAware ADS-B
05:15PM 33.4012 -84.1926 166° South 468 539 38,900 300 Climbing FlightAware ADS-B
05:16PM 33.3364 -84.1782 169° South 466 536 39,000 60 Climbing FlightAware ADS-B
05:16PM 33.2703 -84.1649 170° South 463 533 39,000  Level FlightAware ADS-B
05:18PM 33.1410 -84.1390 170° South 458 527 39,000  Level FlightAware
05:18PM 33.0760 -84.1270 171° South 457 526 39,000  Level FlightAware
05:19PM 33.0040 -84.1130 171° South 456 525 39,000  Level FlightAware
05:19PM 32.9240 -84.0990 172° South 455 524 39,000  Level FlightAware
05:20PM 32.8540 -84.0900 174° South 451 519 39,000  Level FlightAware
05:20PM 32.7760 -84.0850 177° South 451 519 39,000  Level FlightAware
05:21PM 32.7080 -84.0800 176° South 451 519 39,000  Level FlightAware
05:22PM 32.6310 -84.0740 176° South 450 518 39,000  Level FlightAware
05:22PM 32.5570 -84.0690 177° South 451 519 39,000  Level FlightAware
05:23PM 32.4890 -84.0650 177° South 453 521 39,000  Level FlightAware
05:23PM 32.4090 -84.0600 177° South 453 521 39,000  Level FlightAware
05:24PM 32.3330 -84.0560 177° South 453 521 39,000  Level FlightAware
05:25PM 32.2660 -84.0520 177° South 454 522 39,000  Level FlightAware
05:25PM 32.1930 -84.0390 171° South 458 527 39,000  Level FlightAware
05:26PM 32.1320 -84.0200 165° South 454 522 39,000  Level FlightAware
05:26PM 32.0560 -83.9940 164° South 454 522 39,000  Level FlightAware
05:27PM 31.9850 -83.9750 167° South 450 518 39,000  Level FlightAware
05:27PM 31.9070 -83.9560 168° South 448 516 39,000  Level FlightAware
05:28PM 31.8350 -83.9510 177° South 444 511 39,000  Level FlightAware
05:29PM 31.7680 -83.9480 178° South 444 511 39,000  Level FlightAware
05:29PM 31.6960 -83.9470 179° South 455 524 39,000  Level FlightAware
05:30PM 31.6100 -83.9450 179° South 455 524 39,000  Level FlightAware
05:30PM 31.5430 -83.9430 179° South 455 524 39,000  Level FlightAware
05:31PM 31.4660 -83.9400 178° South 455 524 39,000  Level FlightAware
05:32PM 31.4010 -83.9380 178° South 455 524 39,000  Level FlightAware
05:32PM 31.3370 -83.9350 178° South 455 524 39,000  Level FlightAware
05:33PM 31.2720 -83.9320 178° South 455 524 39,000  Level FlightAware
05:35PM 30.9920 -83.9280 179° South 455 524 39,000  Level FlightAware
05:35PM 30.9210 -83.9260 179° South 456 525 39,000  Level FlightAware
05:36PM 30.8360 -83.9230 178° South 457 526 39,000  Level FlightAware
05:37PM 30.7560 -83.9210 179° South 459 528 39,000  Level FlightAware
05:37PM 30.6780 -83.9190 179° South 460 529 39,000  Level FlightAware
05:38PM 30.5980 -83.9170 179° South 461 531 39,000  Level FlightAware
05:38PM 30.5340 -83.9150 178° South 461 531 39,000  Level FlightAware
05:39PM 30.4550 -83.9130 179° South 462 532 39,000  Level FlightAware
05:40PM 30.3820 -83.9110 179° South 463 533 39,000  Level FlightAware
05:40PM 30.2730 -83.9080 179° South 464 534 39,000  Level FlightAware
05:41PM 30.2090 -83.8940 169° South 467 537 39,000  Level FlightAware
05:42PM 30.1290 -83.8490 154° Southeast 468 539 39,000  Level FlightAware
05:42PM 30.1750 -83.8750 334° Northwest 466 536 39,000  Level FlightAware
05:43PM 30.1090 -83.8380 154° Southeast 466 536 39,000  Level FlightAware
05:44PM 29.9040 -83.7280 155° Southeast 461 531 39,000  Level FlightAware
05:44PM 29.8130 -83.6800 155° Southeast 463 533 39,000  Level FlightAware
05:45PM 29.7560 -83.6490 155° Southeast 463 533 39,000  Level FlightAware
05:45PM 29.6810 -83.6100 156° South 462 532 39,000  Level FlightAware
05:46PM 29.6040 -83.5690 155° Southeast 462 532 39,000  Level FlightAware
05:47PM 29.5330 -83.5310 155° Southeast 464 534 39,000  Level FlightAware
05:47PM 29.4750 -83.5000 155° Southeast 464 534 39,000  Level FlightAware
05:48PM 29.3950 -83.4580 155° Southeast 464 534 39,000  Level FlightAware
05:48PM 29.3350 -83.4270 156° South 469 540 39,000  Level FlightAware
05:49PM 29.2520 -83.3970 162° South 467 537 39,000  Level FlightAware
05:50PM 29.1790 -83.3740 165° South 468 539 39,000  Level FlightAware
05:50PM 29.1100 -83.3520 164° South 469 540 39,000  Level FlightAware
05:51PM 29.0240 -83.3240 164° South 470 541 39,000  Level FlightAware
05:51PM 28.9500 -83.3000 164° South 471 542 39,000  Level FlightAware
05:52PM 28.8780 -83.2760 164° South 471 542 39,000  Level FlightAware
05:53PM 28.8040 -83.2520 164° South 470 541 39,000  Level FlightAware
05:53PM 28.7300 -83.2270 163° South 470 541 39,000  Level FlightAware
05:54PM 28.6570 -83.2020 163° South 469 540 39,000  Level FlightAware
05:54PM 28.5840 -83.1780 164° South 468 539 39,000  Level FlightAware
05:55PM 28.5140 -83.1550 164° South 469 540 39,000  Level FlightAware
05:55PM 28.4390 -83.1270 162° South 462 532 39,000  Level FlightAware
05:56PM 28.3670 -83.0950 159° South 468 539 39,000  Level FlightAware
05:57PM 28.2980 -83.0590 155° Southeast 468 539 39,000  Level FlightAware
05:57PM 28.2310 -83.0220 154° Southeast 469 540 39,000  Level FlightAware
05:58PM 28.1630 -82.9830 153° Southeast 469 540 39,000  Level FlightAware
05:58PM 28.0960 -82.9470 155° Southeast 457 526 39,000  Level FlightAware
05:59PM 28.0280 -82.9140 157° South 454 522 39,000  Level FlightAware
06:00PM 27.9580 -82.8810 157° South 453 521 39,000  Level FlightAware
06:00PM 27.8900 -82.8490 157° South 455 524 39,000  Level FlightAware
06:01PM 27.8190 -82.8160 158° South 456 525 39,000  Level FlightAware
06:01PM 27.7510 -82.7840 157° South 456 525 39,000  Level FlightAware
06:02PM 27.6810 -82.7520 158° South 456 525 39,000  Level FlightAware
06:02PM 27.6100 -82.7180 157° South 457 526 39,000  Level FlightAware
06:03PM 27.5410 -82.6860 158° South 456 525 39,000  Level FlightAware
06:04PM 27.4720 -82.6530 157° South 456 525 39,000  Level FlightAware
06:04PM 27.4020 -82.6200 157° South 457 526 39,000  Level FlightAware
06:05PM 27.3320 -82.5870 157° South 459 528 39,000  Level FlightAware
06:05PM 27.2640 -82.5550 157° South 469 540 39,000  Level FlightAware
06:06PM 27.1920 -82.5220 158° South 473 544 39,000  Level FlightAware
06:07PM 27.1290 -82.4920 157° South 474 545 39,000  Level FlightAware
06:07PM 27.0640 -82.4620 158° South 474 545 39,000  Level FlightAware
06:08PM 26.9510 -82.4100 158° South 470 541 39,000  Level FlightAware
06:08PM 26.8910 -82.3820 157° South 470 541 39,000  Level FlightAware
06:09PM 26.8120 -82.3460 158° South 470 541 39,000  Level FlightAware
06:10PM 26.7390 -82.3130 158° South 471 542 39,000  Level FlightAware
06:10PM 26.6720 -82.2800 156° South 474 545 39,000  Level FlightAware
06:11PM 26.6010 -82.2360 151° Southeast 477 549 39,000  Level FlightAware
06:11PM 26.5310 -82.1930 151° Southeast 478 550 39,000  Level FlightAware
06:12PM 26.4520 -82.1440 151° Southeast 477 549 39,000  Level FlightAware
06:13PM 26.3810 -82.1010 152° Southeast 476 548 39,000  Level FlightAware
06:13PM 26.3000 -82.0520 152° Southeast 475 547 39,000  Level FlightAware
06:14PM 26.2300 -82.0090 151° Southeast 474 545 39,000  Level FlightAware
06:15PM 26.1690 -81.9710 151° Southeast 465 535 39,000  Level FlightAware
06:15PM 26.0990 -81.9290 152° Southeast 465 535 39,000  Level FlightAware
06:16PM 26.0300 -81.8870 151° Southeast 473 544 39,000  Level FlightAware
06:16PM 25.9580 -81.8430 151° Southeast 474 545 39,000  Level FlightAware
06:17PM 25.9010 -81.8080 151° Southeast 475 547 39,000  Level FlightAware
06:18PM 25.8060 -81.7510 152° Southeast 473 544 39,000  Level FlightAware
06:18PM 25.7380 -81.7090 151° Southeast 465 535 39,000  Level FlightAware
06:19PM 25.6650 -81.6650 151° Southeast 474 545 39,000  Level FlightAware
06:19PM 25.6070 -81.6300 151° Southeast 475 547 39,000  Level FlightAware
06:20PM 25.5330 -81.5860 152° Southeast 477 549 39,000  Level FlightAware
06:21PM 25.4610 -81.5430 152° Southeast 479 551 39,000  Level FlightAware
06:21PM 25.3970 -81.5040 151° Southeast 475 547 39,000  Level FlightAware
06:22PM 25.3240 -81.4610 152° Southeast 477 549 39,000  Level FlightAware
06:22PM 25.2620 -81.4230 151° Southeast 478 550 39,000  Level FlightAware
06:23PM 25.1920 -81.3810 151° Southeast 478 550 39,000  Level FlightAware
06:24PM 25.1160 -81.3360 152° Southeast 476 548 39,000  Level FlightAware
06:24PM 25.0590 -81.3010 151° Southeast 475 547 39,000  Level FlightAware
06:25PM 24.9730 -81.2500 152° Southeast 476 548 39,000  Level FlightAware
06:25PM 24.9010 -81.2080 152° Southeast 478 550 39,000  Level FlightAware
06:26PM 24.8150 -81.1660 156° South 480 552 39,000  Level FlightAware
06:27PM 24.7390 -81.1410 163° South 479 551 39,000  Level FlightAware
06:27PM 24.6600 -81.1260 170° South 467 537 39,000  Level FlightAware
06:28PM 24.6010 -81.1220 176° South 464 534 39,000 -540 Level FlightAware
06:28PM 24.5590 -81.1280 187° South 466 536 38,600 -1,860 Descending FlightAware
06:28PM 24.5240 -81.1430 201° Southwest 453 521 37,900 -2,400 Descending FlightAware
06:29PM 24.4660 -81.2020 223° Southwest 435 501 36,400 -2,460 Descending FlightAware
06:29PM 24.4500 -81.2320 240° Southwest 439 505 35,700 -1,680 Descending FlightAware
06:30PM 24.4230 -81.3070 248° West 446 513 35,000 -600 Descending FlightAware
06:30PM 24.3950 -81.3810 247° West 446 513 35,000 -360 Level FlightAware
06:31PM 24.3690 -81.4540 249° West 448 516 34,600 -1,320 Descending FlightAware
06:32PM 24.3430 -81.5320 250° West 448 516 33,500 -1,440 Descending FlightAware
06:32PM 24.3140 -81.6160 249° West 442 509 32,800 -1,080 Descending FlightAware
06:33PM 24.2890 -81.6890 249° West 436 502 32,200 -1,080 Descending FlightAware
06:33PM 24.2630 -81.7640 249° West 432 497 31,600 -960 Descending FlightAware
06:34PM 24.2400 -81.8320 250° West 432 497 31,100 -960 Descending FlightAware
06:35PM 24.2140 -81.9060 249° West 429 494 30,500 -1,320 Descending FlightAware
06:35PM 24.1790 -82.0070 249° West 426 490 29,300 -1,500 Descending FlightAware
06:36PM 24.1570 -82.0710 249° West 423 487 28,400 -1,740 Descending FlightAware
06:37PM 24.1310 -82.1440 249° West 418 481 27,300 -1,980 Descending FlightAware
06:37PM 24.0990 -82.2350 249° West 411 473 25,800 -1,680 Descending FlightAware
06:39PM 24.0414 -82.3636 249° West 416 479 23,900 -1,560 Descending Miami Center
06:40PM 23.9692 -82.4533 229° Southwest 400 460 22,200 -1,740 Descending Miami Center
06:42PM 23.8498 -82.4952 173° South  Level FlightAware Approximate
06:49PM 23.0882 -82.4077 170° South  Level FlightAware Approximate
06:50PM 22.9891 -82.4091 180° South  Level Estimated
06:51PM 22.9891 -82.4091 180° South  Level Estimated
06:52PM 22.9891 -82.4091 180° South  Level Estimated
06:53PM 22.9891 -82.4091 180° South  Level Estimated
06:54PM 22.9891 -82.4091 180° South  Level Estimated
06:55PM 22.9891 -82.4091 180° South  Level Estimated
06:56PM 22.9891 -82.4091 180° South  Level Estimated
06:57PM 22.9891 -82.4091 180° South  Level Estimated
06:58PM 22.9891 -82.4091 180° South  Level Estimated
06:59PM 22.9891 -82.4091 180° South  Level Estimated
07:00PM 22.9891 -82.4091 180° South  Level Estimated
07:01PM 22.9891 -82.4091 180° South  Level Estimated
07:02PM 22.9891 -82.4091 180° South  Level Estimated
07:03PM 22.9891 -82.4091 180° South  Level Estimated
07:04PM 22.9891 -82.4091 180° South  Level Estimated
07:05PM 22.9891 -82.4091 180° South  Level Estimated
07:06PM 22.9891 -82.4091 180° South  Level Estimated
07:07PM 22.9891 -82.4091 180° South  Level Estimated
07:08PM 22.9891 -82.4091 180° South  Level Estimated
07:09PM 22.9891 -82.4091 180° South  Level Estimated
07:10PM 22.9891 -82.4091 180° South  Level Estimated
07:11PM 22.9891 -82.4091 180° South  Level Estimated